Check out our new PWSWeather beta!
PWSweather.com
Personal Weather Stations
Station Observations
KD5LEN
Ktxnorth1, North Richland Hills, TX 76180

Ktxnorth1North Richland Hills, TX 76180

Lat: 32.885294, Lon: -97.236048

Elevation: 694

Station Type: Vantage Pro 2

http://www.atzer0.net/VWS/root/index.htm

High Low Average
Temperature 63.3°F17.4°C 41.3°F5.2°C 52.0°F11.1°C
Dew Point 38.7°F3.7°C 27.9°F-2.3°C 32.4°F0.2°C
Winds 12.0 mph 19.3 kmh Calm Calm 3.0 mph SSE4.8 kmh SSE
Wind Gusts 13.0 mph20.9 kmh 1.0 mph1.6 kmh 6.0 mph9.7 kmh
Humidity 67% 29% 49%
Pressure 30.26 in1024.7 mb 30.07 in1018.3 mb -
Precipitation 0.00 in0.0 mm - -
Hour Temp Dew Point Humidity Winds Wind Gusts Pressure Precip Precip Rate Daily Precip Total
12:00 AM 45.2°F7.3°C 31.7°F-0.2°C 59% 3.0 mph NE4.8 kmh NE 5.0 mph8.0 kmh 30.22 in1023.4 mb 0.00 in0.0 mm 0.00 in0.0 mm 0.00 in0.0 mm
12:02 AM 45.2°F7.3°C 31.7°F-0.2°C 59% 2.0 mph NE3.2 kmh NE 4.0 mph6.4 kmh 30.22 in1023.4 mb 0.00 in0.0 mm 0.00 in0.0 mm 0.00 in0.0 mm
12:04 AM 45.2°F7.3°C 31.7°F-0.2°C 59% 1.0 mph NE1.6 kmh NE 4.0 mph6.4 kmh 30.22 in1023.4 mb 0.00 in0.0 mm 0.00 in0.0 mm 0.00 in0.0 mm
12:06 AM 45.2°F7.3°C 31.7°F-0.2°C 59% 2.0 mph NE3.2 kmh NE 4.0 mph6.4 kmh 30.22 in1023.4 mb 0.00 in0.0 mm 0.00 in0.0 mm 0.00 in0.0 mm
12:08 AM 45.1°F7.3°C 31.6°F-0.2°C 59% 2.0 mph NE3.2 kmh NE 4.0 mph6.4 kmh 30.22 in1023.4 mb 0.00 in0.0 mm 0.00 in0.0 mm 0.00 in0.0 mm
12:10 AM 45.0°F7.2°C 31.6°F-0.2°C 59% 3.0 mph NE4.8 kmh NE 4.0 mph6.4 kmh 30.22 in1023.4 mb 0.00 in0.0 mm 0.00 in0.0 mm 0.00 in0.0 mm
12:12 AM 45.0°F7.2°C 31.6°F-0.2°C 59% 2.0 mph NE3.2 kmh NE 4.0 mph6.4 kmh 30.22 in1023.4 mb 0.00 in0.0 mm 0.00 in0.0 mm 0.00 in0.0 mm
12:14 AM 45.0°F7.2°C 31.6°F-0.2°C 59% 1.0 mph NE1.6 kmh NE 4.0 mph6.4 kmh 30.22 in1023.4 mb 0.00 in0.0 mm 0.00 in0.0 mm 0.00 in0.0 mm
12:16 AM 45.0°F7.2°C 32.0°F0.0°C 60% 1.0 mph NE1.6 kmh NE 4.0 mph6.4 kmh 30.22 in1023.4 mb 0.00 in0.0 mm 0.00 in0.0 mm 0.00 in0.0 mm
12:18 AM 44.9°F7.2°C 31.9°F-0.1°C 60% 2.0 mph NE3.2 kmh NE 4.0 mph6.4 kmh 30.22 in1023.4 mb 0.00 in0.0 mm 0.00 in0.0 mm 0.00 in0.0 mm
12:20 AM 44.9°F7.2°C 31.9°F-0.1°C 60% 3.0 mph NE4.8 kmh NE 4.0 mph6.4 kmh 30.22 in1023.4 mb 0.00 in0.0 mm 0.00 in0.0 mm 0.00 in0.0 mm
12:22 AM 44.8°F7.1°C 31.8°F-0.1°C 60% 2.0 mph NE3.2 kmh NE 4.0 mph6.4 kmh 30.22 in1023.4 mb 0.00 in0.0 mm 0.00 in0.0 mm 0.00 in0.0 mm
12:24 AM 44.9°F7.2°C 31.9°F-0.1°C 60% 3.0 mph NE4.8 kmh NE 4.0 mph6.4 kmh 30.22 in1023.4 mb 0.00 in0.0 mm 0.00 in0.0 mm 0.00 in0.0 mm
12:26 AM 44.8°F7.1°C 31.8°F-0.1°C 60% 2.0 mph NE3.2 kmh NE 4.0 mph6.4 kmh 30.22 in1023.4 mb 0.00 in0.0 mm 0.00 in0.0 mm 0.00 in0.0 mm
12:27 AM 44.8°F7.1°C 31.8°F-0.1°C 60% 2.0 mph NE3.2 kmh NE 4.0 mph6.4 kmh 30.22 in1023.4 mb 0.00 in0.0 mm 0.00 in0.0 mm 0.00 in0.0 mm
12:30 AM 44.8°F7.1°C 31.8°F-0.1°C 60% 4.0 mph NE6.4 kmh NE 4.0 mph6.4 kmh 30.22 in1023.4 mb 0.00 in0.0 mm 0.00 in0.0 mm 0.00 in0.0 mm
12:32 AM 44.8°F7.1°C 31.8°F-0.1°C 60% 2.0 mph NE3.2 kmh NE 3.0 mph4.8 kmh 30.22 in1023.4 mb 0.00 in0.0 mm 0.00 in0.0 mm 0.00 in0.0 mm
12:34 AM 44.8°F7.1°C 32.2°F0.1°C 61% 3.0 mph NE4.8 kmh NE 4.0 mph6.4 kmh 30.22 in1023.4 mb 0.00 in0.0 mm 0.00 in0.0 mm 0.00 in0.0 mm
12:36 AM 44.8°F7.1°C 32.2°F0.1°C 61% 2.0 mph NNE3.2 kmh NNE 4.0 mph6.4 kmh 30.22 in1023.4 mb 0.00 in0.0 mm 0.00 in0.0 mm 0.00 in0.0 mm
12:38 AM 44.7°F7.1°C 32.1°F0.1°C 61% 2.0 mph NE3.2 kmh NE 4.0 mph6.4 kmh 30.22 in1023.4 mb 0.00 in0.0 mm 0.00 in0.0 mm 0.00 in0.0 mm
12:40 AM 44.7°F7.1°C 32.1°F0.1°C 61% 2.0 mph NNE3.2 kmh NNE 4.0 mph6.4 kmh 30.22 in1023.4 mb 0.00 in0.0 mm 0.00 in0.0 mm 0.00 in0.0 mm
12:42 AM 44.7°F7.1°C 32.1°F0.1°C 61% 2.0 mph NE3.2 kmh NE 4.0 mph6.4 kmh 30.22 in1023.4 mb 0.00 in0.0 mm 0.00 in0.0 mm 0.00 in0.0 mm
12:44 AM 44.6°F7.0°C 32.0°F0.0°C 61% 2.0 mph NE3.2 kmh NE 4.0 mph6.4 kmh 30.22 in1023.4 mb 0.00 in0.0 mm 0.00 in0.0 mm 0.00 in0.0 mm
12:46 AM 44.6°F7.0°C 32.0°F0.0°C 61% 3.0 mph NE4.8 kmh NE 4.0 mph6.4 kmh 30.22 in1023.4 mb 0.00 in0.0 mm 0.00 in0.0 mm 0.00 in0.0 mm
12:48 AM 44.5°F6.9°C 31.9°F-0.1°C 61% 2.0 mph NE3.2 kmh NE 4.0 mph6.4 kmh 30.22 in1023.4 mb 0.00 in0.0 mm 0.00 in0.0 mm 0.00 in0.0 mm
12:50 AM 44.5°F6.9°C 31.9°F-0.1°C 61% 2.0 mph NE3.2 kmh NE 4.0 mph6.4 kmh 30.22 in1023.4 mb 0.00 in0.0 mm 0.00 in0.0 mm 0.00 in0.0 mm
12:52 AM 44.5°F6.9°C 31.9°F-0.1°C 61% 4.0 mph NE6.4 kmh NE 4.0 mph6.4 kmh 30.22 in1023.4 mb 0.00 in0.0 mm 0.00 in0.0 mm 0.00 in0.0 mm
12:54 AM 44.5°F6.9°C 31.9°F-0.1°C 61% 4.0 mph NE6.4 kmh NE 4.0 mph6.4 kmh 30.22 in1023.4 mb 0.00 in0.0 mm 0.00 in0.0 mm 0.00 in0.0 mm
12:56 AM 44.5°F6.9°C 31.9°F-0.1°C 61% 1.0 mph NE1.6 kmh NE 4.0 mph6.4 kmh 30.22 in1023.4 mb 0.00 in0.0 mm 0.00 in0.0 mm 0.00 in0.0 mm
12:58 AM 44.5°F6.9°C 31.9°F-0.1°C 61% 1.0 mph NE1.6 kmh NE 4.0 mph6.4 kmh 30.22 in1023.4 mb 0.00 in0.0 mm 0.00 in0.0 mm 0.00 in0.0 mm
01:00 AM 44.4°F6.9°C 31.8°F-0.1°C 61% 1.0 mph NE1.6 kmh NE 4.0 mph6.4 kmh 30.22 in1023.4 mb 0.00 in0.0 mm 0.00 in0.0 mm 0.00 in0.0 mm
01:02 AM 44.4°F6.9°C 32.2°F0.1°C 62% 1.0 mph NE1.6 kmh NE 2.0 mph3.2 kmh 30.22 in1023.4 mb 0.00 in0.0 mm 0.00 in0.0 mm 0.00 in0.0 mm
01:04 AM 44.3°F6.8°C 32.1°F0.1°C 62% 2.0 mph NE3.2 kmh NE 2.0 mph3.2 kmh 30.22 in1023.4 mb 0.00 in0.0 mm 0.00 in0.0 mm 0.00 in0.0 mm
01:06 AM 44.2°F6.8°C 32.0°F0.0°C 62% 2.0 mph NE3.2 kmh NE 3.0 mph4.8 kmh 30.22 in1023.4 mb 0.00 in0.0 mm 0.00 in0.0 mm 0.00 in0.0 mm
01:08 AM 44.2°F6.8°C 32.4°F0.2°C 63% 1.0 mph NE1.6 kmh NE 3.0 mph4.8 kmh 30.22 in1023.4 mb 0.00 in0.0 mm 0.00 in0.0 mm 0.00 in0.0 mm
01:10 AM 44.1°F6.7°C 32.3°F0.2°C 63% 2.0 mph NE3.2 kmh NE 3.0 mph4.8 kmh 30.22 in1023.4 mb 0.00 in0.0 mm 0.00 in0.0 mm 0.00 in0.0 mm
01:12 AM 44.0°F6.7°C 32.2°F0.1°C 63% 1.0 mph NE1.6 kmh NE 3.0 mph4.8 kmh 30.22 in1023.4 mb 0.00 in0.0 mm 0.00 in0.0 mm 0.00 in0.0 mm
01:14 AM 43.9°F6.6°C 32.5°F0.3°C 64% 2.0 mph NE3.2 kmh NE 3.0 mph4.8 kmh 30.22 in1023.4 mb 0.00 in0.0 mm 0.00 in0.0 mm 0.00 in0.0 mm
01:16 AM 43.7°F6.5°C 32.3°F0.2°C 64% 1.0 mph NNE1.6 kmh NNE 3.0 mph4.8 kmh 30.22 in1023.4 mb 0.00 in0.0 mm 0.00 in0.0 mm 0.00 in0.0 mm
01:18 AM 43.6°F6.4°C 32.6°F0.3°C 65% 1.0 mph NNE1.6 kmh NNE 3.0 mph4.8 kmh 30.22 in1023.4 mb 0.00 in0.0 mm 0.00 in0.0 mm 0.00 in0.0 mm
01:20 AM 43.4°F6.3°C 32.4°F0.2°C 65% 2.0 mph NNE3.2 kmh NNE 3.0 mph4.8 kmh 30.22 in1023.4 mb 0.00 in0.0 mm 0.00 in0.0 mm 0.00 in0.0 mm
01:22 AM 43.4°F6.3°C 32.4°F0.2°C 65% 3.0 mph NNE4.8 kmh NNE 4.0 mph6.4 kmh 30.22 in1023.4 mb 0.00 in0.0 mm 0.00 in0.0 mm 0.00 in0.0 mm
01:24 AM 43.3°F6.3°C 32.3°F0.2°C 65% 3.0 mph NNE4.8 kmh NNE 4.0 mph6.4 kmh 30.22 in1023.4 mb 0.00 in0.0 mm 0.00 in0.0 mm 0.00 in0.0 mm
01:26 AM 43.2°F6.2°C 32.3°F0.2°C 65% 3.0 mph NNE4.8 kmh NNE 4.0 mph6.4 kmh 30.22 in1023.4 mb 0.00 in0.0 mm 0.00 in0.0 mm 0.00 in0.0 mm
01:28 AM 43.2°F6.2°C 32.3°F0.2°C 65% 2.0 mph NNE3.2 kmh NNE 4.0 mph6.4 kmh 30.22 in1023.4 mb 0.00 in0.0 mm 0.00 in0.0 mm 0.00 in0.0 mm
01:30 AM 43.2°F6.2°C 32.3°F0.2°C 65% 1.0 mph NNE1.6 kmh NNE 4.0 mph6.4 kmh 30.23 in1023.7 mb 0.00 in0.0 mm 0.00 in0.0 mm 0.00 in0.0 mm
01:32 AM 43.2°F6.2°C 32.3°F0.2°C 65% 1.0 mph NNE1.6 kmh NNE 2.0 mph3.2 kmh 30.22 in1023.4 mb 0.00 in0.0 mm 0.00 in0.0 mm 0.00 in0.0 mm
01:34 AM 43.2°F6.2°C 32.3°F0.2°C 65% 1.0 mph NNE1.6 kmh NNE 4.0 mph6.4 kmh 30.22 in1023.4 mb 0.00 in0.0 mm 0.00 in0.0 mm 0.00 in0.0 mm
01:36 AM 43.2°F6.2°C 32.3°F0.2°C 65% 3.0 mph NNE4.8 kmh NNE 4.0 mph6.4 kmh 30.22 in1023.4 mb 0.00 in0.0 mm 0.00 in0.0 mm 0.00 in0.0 mm
01:38 AM 43.1°F6.2°C 32.2°F0.1°C 65% 1.0 mph NNE1.6 kmh NNE 4.0 mph6.4 kmh 30.22 in1023.4 mb 0.00 in0.0 mm 0.00 in0.0 mm 0.00 in0.0 mm
01:40 AM 43.2°F6.2°C 32.3°F0.2°C 65% 2.0 mph NNE3.2 kmh NNE 4.0 mph6.4 kmh 30.22 in1023.4 mb 0.00 in0.0 mm 0.00 in0.0 mm 0.00 in0.0 mm
01:42 AM 43.0°F6.1°C 32.4°F0.2°C 66% 3.0 mph NNE4.8 kmh NNE 4.0 mph6.4 kmh 30.22 in1023.4 mb 0.00 in0.0 mm 0.00 in0.0 mm 0.00 in0.0 mm
01:43 AM 43.0°F6.1°C 32.4°F0.2°C 66% 3.0 mph NNE4.8 kmh NNE 4.0 mph6.4 kmh 30.22 in1023.4 mb 0.00 in0.0 mm 0.00 in0.0 mm 0.00 in0.0 mm
01:46 AM 43.0°F6.1°C 32.4°F0.2°C 66% 2.0 mph NNE3.2 kmh NNE 4.0 mph6.4 kmh 30.22 in1023.4 mb 0.00 in0.0 mm 0.00 in0.0 mm 0.00 in0.0 mm
01:47 AM 42.9°F6.1°C 32.3°F0.2°C 66% 3.0 mph N4.8 kmh N 4.0 mph6.4 kmh 30.22 in1023.4 mb 0.00 in0.0 mm 0.00 in0.0 mm 0.00 in0.0 mm
01:50 AM 42.9°F6.1°C 32.3°F0.2°C 66% 2.0 mph NNE3.2 kmh NNE 4.0 mph6.4 kmh 30.22 in1023.4 mb 0.00 in0.0 mm 0.00 in0.0 mm 0.00 in0.0 mm
01:51 AM 42.9°F6.1°C 32.0°F0.0°C 65% 2.0 mph NNE3.2 kmh NNE 4.0 mph6.4 kmh 30.23 in1023.7 mb 0.00 in0.0 mm 0.00 in0.0 mm 0.00 in0.0 mm
01:53 AM 42.9°F6.1°C 32.0°F0.0°C 65% 2.0 mph N3.2 kmh N 4.0 mph6.4 kmh 30.22 in1023.4 mb 0.00 in0.0 mm 0.00 in0.0 mm 0.00 in0.0 mm
01:55 AM 42.8°F6.0°C 31.9°F-0.1°C 65% 3.0 mph NNE4.8 kmh NNE 4.0 mph6.4 kmh 30.22 in1023.4 mb 0.00 in0.0 mm 0.00 in0.0 mm 0.00 in0.0 mm
01:56 AM 42.8°F6.0°C 31.9°F-0.1°C 65% 3.0 mph NNE4.8 kmh NNE 4.0 mph6.4 kmh 30.22 in1023.4 mb 0.00 in0.0 mm 0.00 in0.0 mm 0.00 in0.0 mm
01:59 AM 42.8°F6.0°C 31.9°F-0.1°C 65% 2.0 mph N3.2 kmh N 4.0 mph6.4 kmh 30.22 in1023.4 mb 0.00 in0.0 mm 0.00 in0.0 mm 0.00 in0.0 mm
02:02 AM 42.8°F6.0°C 31.9°F-0.1°C 65% 2.0 mph N3.2 kmh N 3.0 mph4.8 kmh 30.22 in1023.4 mb 0.00 in0.0 mm 0.00 in0.0 mm 0.00 in0.0 mm
02:03 AM 42.7°F5.9°C 31.8°F-0.1°C 65% 1.0 mph N1.6 kmh N 4.0 mph6.4 kmh 30.22 in1023.4 mb 0.00 in0.0 mm 0.00 in0.0 mm 0.00 in0.0 mm
02:05 AM 42.7°F5.9°C 31.8°F-0.1°C 65% 1.0 mph N1.6 kmh N 4.0 mph6.4 kmh 30.22 in1023.4 mb 0.00 in0.0 mm 0.00 in0.0 mm 0.00 in0.0 mm
02:07 AM 42.7°F5.9°C 32.2°F0.1°C 66% 2.0 mph N3.2 kmh N 4.0 mph6.4 kmh 30.22 in1023.4 mb 0.00 in0.0 mm 0.00 in0.0 mm 0.00 in0.0 mm
02:10 AM 42.6°F5.9°C 32.1°F0.1°C 66% 3.0 mph NNE4.8 kmh NNE 4.0 mph6.4 kmh 30.22 in1023.4 mb 0.00 in0.0 mm 0.00 in0.0 mm 0.00 in0.0 mm
02:12 AM 42.6°F5.9°C 32.1°F0.1°C 66% 1.0 mph NNE1.6 kmh NNE 4.0 mph6.4 kmh 30.22 in1023.4 mb 0.00 in0.0 mm 0.00 in0.0 mm 0.00 in0.0 mm
02:14 AM 42.5°F5.8°C 32.0°F0.0°C 66% 1.0 mph NNE1.6 kmh NNE 4.0 mph6.4 kmh 30.22 in1023.4 mb 0.00 in0.0 mm 0.00 in0.0 mm 0.00 in0.0 mm
02:16 AM 42.5°F5.8°C 32.0°F0.0°C 66% 2.0 mph NNE3.2 kmh NNE 4.0 mph6.4 kmh 30.22 in1023.4 mb 0.00 in0.0 mm 0.00 in0.0 mm 0.00 in0.0 mm
02:18 AM 42.3°F5.7°C 31.8°F-0.1°C 66% 2.0 mph NNE3.2 kmh NNE 4.0 mph6.4 kmh 30.22 in1023.4 mb 0.00 in0.0 mm 0.00 in0.0 mm 0.00 in0.0 mm
02:20 AM 42.3°F5.7°C 31.8°F-0.1°C 66% 2.0 mph NNE3.2 kmh NNE 4.0 mph6.4 kmh 30.22 in1023.4 mb 0.00 in0.0 mm 0.00 in0.0 mm 0.00 in0.0 mm
02:22 AM 42.2°F5.7°C 31.7°F-0.2°C 66% 3.0 mph NNE4.8 kmh NNE 4.0 mph6.4 kmh 30.22 in1023.4 mb 0.00 in0.0 mm 0.00 in0.0 mm 0.00 in0.0 mm
02:24 AM 42.2°F5.7°C 31.7°F-0.2°C 66% 2.0 mph N3.2 kmh N 4.0 mph6.4 kmh 30.22 in1023.4 mb 0.00 in0.0 mm 0.00 in0.0 mm 0.00 in0.0 mm
02:26 AM 42.1°F5.6°C 31.6°F-0.2°C 66% 1.0 mph N1.6 kmh N 4.0 mph6.4 kmh 30.22 in1023.4 mb 0.00 in0.0 mm 0.00 in0.0 mm 0.00 in0.0 mm
02:28 AM 42.1°F5.6°C 31.6°F-0.2°C 66% 1.0 mph N1.6 kmh N 4.0 mph6.4 kmh 30.22 in1023.4 mb 0.00 in0.0 mm 0.00 in0.0 mm 0.00 in0.0 mm
02:30 AM 42.0°F5.6°C 31.5°F-0.3°C 66% 2.0 mph N3.2 kmh N 4.0 mph6.4 kmh 30.22 in1023.4 mb 0.00 in0.0 mm 0.00 in0.0 mm 0.00 in0.0 mm
02:32 AM 42.0°F5.6°C 31.5°F-0.3°C 66% 3.0 mph N4.8 kmh N 5.0 mph8.0 kmh 30.22 in1023.4 mb 0.00 in0.0 mm 0.00 in0.0 mm 0.00 in0.0 mm
02:34 AM 42.0°F5.6°C 31.5°F-0.3°C 66% 2.0 mph N3.2 kmh N 5.0 mph8.0 kmh 30.22 in1023.4 mb 0.00 in0.0 mm 0.00 in0.0 mm 0.00 in0.0 mm
02:36 AM 42.0°F5.6°C 31.5°F-0.3°C 66% 3.0 mph N4.8 kmh N 5.0 mph8.0 kmh 30.21 in1023.0 mb 0.00 in0.0 mm 0.00 in0.0 mm 0.00 in0.0 mm
02:38 AM 42.0°F5.6°C 31.5°F-0.3°C 66% 1.0 mph N1.6 kmh N 5.0 mph8.0 kmh 30.21 in1023.0 mb 0.00 in0.0 mm 0.00 in0.0 mm 0.00 in0.0 mm
02:40 AM 42.0°F5.6°C 31.1°F-0.5°C 65% 1.0 mph N1.6 kmh N 5.0 mph8.0 kmh 30.22 in1023.4 mb 0.00 in0.0 mm 0.00 in0.0 mm 0.00 in0.0 mm
02:42 AM 42.0°F5.6°C 31.1°F-0.5°C 65% 2.0 mph N3.2 kmh N 5.0 mph8.0 kmh 30.21 in1023.0 mb 0.00 in0.0 mm 0.00 in0.0 mm 0.00 in0.0 mm
02:44 AM 41.9°F5.5°C 31.0°F-0.6°C 65% 3.0 mph N4.8 kmh N 5.0 mph8.0 kmh 30.21 in1023.0 mb 0.00 in0.0 mm 0.00 in0.0 mm 0.00 in0.0 mm
02:46 AM 41.8°F5.4°C 31.3°F-0.4°C 66% 3.0 mph N4.8 kmh N 5.0 mph8.0 kmh 30.21 in1023.0 mb 0.00 in0.0 mm 0.00 in0.0 mm 0.00 in0.0 mm
02:48 AM 41.8°F5.4°C 31.3°F-0.4°C 66% 3.0 mph N4.8 kmh N 5.0 mph8.0 kmh 30.21 in1023.0 mb 0.00 in0.0 mm 0.00 in0.0 mm 0.00 in0.0 mm
02:50 AM 41.7°F5.4°C 31.2°F-0.4°C 66% 2.0 mph N3.2 kmh N 5.0 mph8.0 kmh 30.21 in1023.0 mb 0.00 in0.0 mm 0.00 in0.0 mm 0.00 in0.0 mm
02:52 AM 41.6°F5.3°C 31.1°F-0.5°C 66% 3.0 mph NNE4.8 kmh NNE 5.0 mph8.0 kmh 30.21 in1023.0 mb 0.00 in0.0 mm 0.00 in0.0 mm 0.00 in0.0 mm
02:54 AM 41.5°F5.3°C 31.0°F-0.6°C 66% 2.0 mph N3.2 kmh N 5.0 mph8.0 kmh 30.21 in1023.0 mb 0.00 in0.0 mm 0.00 in0.0 mm 0.00 in0.0 mm
02:56 AM 41.5°F5.3°C 31.4°F-0.3°C 67% 4.0 mph N6.4 kmh N 5.0 mph8.0 kmh 30.21 in1023.0 mb 0.00 in0.0 mm 0.00 in0.0 mm 0.00 in0.0 mm
02:58 AM 41.4°F5.2°C 31.3°F-0.4°C 67% 3.0 mph N4.8 kmh N 5.0 mph8.0 kmh 30.21 in1023.0 mb 0.00 in0.0 mm 0.00 in0.0 mm 0.00 in0.0 mm
02:59 AM 41.4°F5.2°C 31.3°F-0.4°C 67% 2.0 mph NNE3.2 kmh NNE 5.0 mph8.0 kmh 30.21 in1023.0 mb 0.00 in0.0 mm 0.00 in0.0 mm 0.00 in0.0 mm
03:02 AM 41.4°F5.2°C 31.3°F-0.4°C 67% 2.0 mph N3.2 kmh N 4.0 mph6.4 kmh 30.21 in1023.0 mb 0.00 in0.0 mm 0.00 in0.0 mm 0.00 in0.0 mm
03:04 AM 41.4°F5.2°C 31.3°F-0.4°C 67% 2.0 mph N3.2 kmh N 4.0 mph6.4 kmh 30.21 in1023.0 mb 0.00 in0.0 mm 0.00 in0.0 mm 0.00 in0.0 mm
03:06 AM 41.3°F5.2°C 31.2°F-0.4°C 67% 3.0 mph N4.8 kmh N 4.0 mph6.4 kmh 30.21 in1023.0 mb 0.00 in0.0 mm 0.00 in0.0 mm 0.00 in0.0 mm
03:08 AM 41.3°F5.2°C 30.8°F-0.7°C 66% 3.0 mph NNE4.8 kmh NNE 5.0 mph8.0 kmh 30.21 in1023.0 mb 0.00 in0.0 mm 0.00 in0.0 mm 0.00 in0.0 mm
03:10 AM 41.3°F5.2°C 30.8°F-0.7°C 66% 2.0 mph N3.2 kmh N 5.0 mph8.0 kmh 30.21 in1023.0 mb 0.00 in0.0 mm 0.00 in0.0 mm 0.00 in0.0 mm
03:12 AM 41.3°F5.2°C 30.8°F-0.7°C 66% 1.0 mph N1.6 kmh N 5.0 mph8.0 kmh 30.21 in1023.0 mb 0.00 in0.0 mm 0.00 in0.0 mm 0.00 in0.0 mm
03:14 AM 41.3°F5.2°C 30.8°F-0.7°C 66% 3.0 mph N4.8 kmh N 6.0 mph9.7 kmh 30.21 in1023.0 mb 0.00 in0.0 mm 0.00 in0.0 mm 0.00 in0.0 mm
03:16 AM 41.3°F5.2°C 30.8°F-0.7°C 66% 7.0 mph NNE11.3 kmh NNE 7.0 mph11.3 kmh 30.21 in1023.0 mb 0.00 in0.0 mm 0.00 in0.0 mm 0.00 in0.0 mm
03:18 AM 41.3°F5.2°C 30.8°F-0.7°C 66% 4.0 mph NNE6.4 kmh NNE 7.0 mph11.3 kmh 30.21 in1023.0 mb 0.00 in0.0 mm 0.00 in0.0 mm 0.00 in0.0 mm
03:20 AM 41.3°F5.2°C 30.8°F-0.7°C 66% 4.0 mph NNE6.4 kmh NNE 7.0 mph11.3 kmh 30.20 in1022.7 mb 0.00 in0.0 mm 0.00 in0.0 mm 0.00 in0.0 mm
03:22 AM 41.4°F5.2°C 30.9°F-0.6°C 66% 3.0 mph N4.8 kmh N 7.0 mph11.3 kmh 30.20 in1022.7 mb 0.00 in0.0 mm 0.00 in0.0 mm 0.00 in0.0 mm
03:24 AM 41.3°F5.2°C 30.8°F-0.7°C 66% 3.0 mph N4.8 kmh N 7.0 mph11.3 kmh 30.21 in1023.0 mb 0.00 in0.0 mm 0.00 in0.0 mm 0.00 in0.0 mm
03:26 AM 41.3°F5.2°C 31.2°F-0.4°C 67% 3.0 mph N4.8 kmh N 7.0 mph11.3 kmh 30.20 in1022.7 mb 0.00 in0.0 mm 0.00 in0.0 mm 0.00 in0.0 mm
03:28 AM 41.3°F5.2°C 31.2°F-0.4°C 67% 4.0 mph N6.4 kmh N 7.0 mph11.3 kmh 30.20 in1022.7 mb 0.00 in0.0 mm 0.00 in0.0 mm 0.00 in0.0 mm
03:30 AM 41.3°F5.2°C 31.2°F-0.4°C 67% 1.0 mph N1.6 kmh N 7.0 mph11.3 kmh 30.21 in1023.0 mb 0.00 in0.0 mm 0.00 in0.0 mm 0.00 in0.0 mm
03:32 AM 41.3°F5.2°C 31.2°F-0.4°C 67% 2.0 mph N3.2 kmh N 4.0 mph6.4 kmh 30.21 in1023.0 mb 0.00 in0.0 mm 0.00 in0.0 mm 0.00 in0.0 mm
03:34 AM 41.4°F5.2°C 31.3°F-0.4°C 67% 4.0 mph N6.4 kmh N 4.0 mph6.4 kmh 30.21 in1023.0 mb 0.00 in0.0 mm 0.00 in0.0 mm 0.00 in0.0 mm
03:36 AM 41.3°F5.2°C 31.2°F-0.4°C 67% 4.0 mph NNE6.4 kmh NNE 5.0 mph8.0 kmh 30.21 in1023.0 mb 0.00 in0.0 mm 0.00 in0.0 mm 0.00 in0.0 mm
03:38 AM 41.4°F5.2°C 31.3°F-0.4°C 67% 4.0 mph N6.4 kmh N 7.0 mph11.3 kmh 30.21 in1023.0 mb 0.00 in0.0 mm 0.00 in0.0 mm 0.00 in0.0 mm
03:40 AM 41.4°F5.2°C 31.3°F-0.4°C 67% 2.0 mph N3.2 kmh N 7.0 mph11.3 kmh 30.21 in1023.0 mb 0.00 in0.0 mm 0.00 in0.0 mm 0.00 in0.0 mm
03:42 AM 41.4°F5.2°C 31.3°F-0.4°C 67% 2.0 mph NNE3.2 kmh NNE 7.0 mph11.3 kmh 30.21 in1023.0 mb 0.00 in0.0 mm 0.00 in0.0 mm 0.00 in0.0 mm
03:44 AM 41.5°F5.3°C 31.4°F-0.3°C 67% 2.0 mph N3.2 kmh N 7.0 mph11.3 kmh 30.21 in1023.0 mb 0.00 in0.0 mm 0.00 in0.0 mm 0.00 in0.0 mm
03:46 AM 41.5°F5.3°C 31.4°F-0.3°C 67% 3.0 mph NNE4.8 kmh NNE 7.0 mph11.3 kmh 30.21 in1023.0 mb 0.00 in0.0 mm 0.00 in0.0 mm 0.00 in0.0 mm
03:48 AM 41.5°F5.3°C 31.4°F-0.3°C 67% 2.0 mph N3.2 kmh N 7.0 mph11.3 kmh 30.21 in1023.0 mb 0.00 in0.0 mm 0.00 in0.0 mm 0.00 in0.0 mm
03:50 AM 41.5°F5.3°C 31.4°F-0.3°C 67% 3.0 mph N4.8 kmh N 7.0 mph11.3 kmh 30.21 in1023.0 mb 0.00 in0.0 mm 0.00 in0.0 mm 0.00 in0.0 mm
03:52 AM 41.6°F5.3°C 31.5°F-0.3°C 67% 4.0 mph N6.4 kmh N 7.0 mph11.3 kmh 30.21 in1023.0 mb 0.00 in0.0 mm 0.00 in0.0 mm 0.00 in0.0 mm
03:54 AM 41.6°F5.3°C 31.5°F-0.3°C 67% 3.0 mph NNE4.8 kmh NNE 7.0 mph11.3 kmh 30.20 in1022.7 mb 0.00 in0.0 mm 0.00 in0.0 mm 0.00 in0.0 mm
03:56 AM 41.7°F5.4°C 31.2°F-0.4°C 66% 1.0 mph NE1.6 kmh NE 7.0 mph11.3 kmh 30.20 in1022.7 mb 0.00 in0.0 mm 0.00 in0.0 mm 0.00 in0.0 mm
03:58 AM 41.7°F5.4°C 31.6°F-0.2°C 67% 5.0 mph NNE8.0 kmh NNE 7.0 mph11.3 kmh 30.20 in1022.7 mb 0.00 in0.0 mm 0.00 in0.0 mm 0.00 in0.0 mm
04:00 AM 41.7°F5.4°C 31.2°F-0.4°C 66% 4.0 mph NNE6.4 kmh NNE 7.0 mph11.3 kmh 30.20 in1022.7 mb 0.00 in0.0 mm 0.00 in0.0 mm 0.00 in0.0 mm
04:02 AM 41.8°F5.4°C 31.3°F-0.4°C 66% 2.0 mph N3.2 kmh N 5.0 mph8.0 kmh 30.20 in1022.7 mb 0.00 in0.0 mm 0.00 in0.0 mm 0.00 in0.0 mm
04:04 AM 41.8°F5.4°C 31.3°F-0.4°C 66% 2.0 mph N3.2 kmh N 5.0 mph8.0 kmh 30.20 in1022.7 mb 0.00 in0.0 mm 0.00 in0.0 mm 0.00 in0.0 mm
04:06 AM 41.8°F5.4°C 31.3°F-0.4°C 66% 4.0 mph N6.4 kmh N 5.0 mph8.0 kmh 30.20 in1022.7 mb 0.00 in0.0 mm 0.00 in0.0 mm 0.00 in0.0 mm
04:08 AM 41.9°F5.5°C 31.4°F-0.3°C 66% 4.0 mph N6.4 kmh N 6.0 mph9.7 kmh 30.20 in1022.7 mb 0.00 in0.0 mm 0.00 in0.0 mm 0.00 in0.0 mm
04:10 AM 42.0°F5.6°C 31.5°F-0.3°C 66% 4.0 mph NNW6.4 kmh NNW 6.0 mph9.7 kmh 30.20 in1022.7 mb 0.00 in0.0 mm 0.00 in0.0 mm 0.00 in0.0 mm
04:12 AM 42.0°F5.6°C 31.5°F-0.3°C 66% 2.0 mph N3.2 kmh N 8.0 mph12.9 kmh 30.20 in1022.7 mb 0.00 in0.0 mm 0.00 in0.0 mm 0.00 in0.0 mm
04:14 AM 42.1°F5.6°C 31.2°F-0.4°C 65% 3.0 mph N4.8 kmh N 8.0 mph12.9 kmh 30.21 in1023.0 mb 0.00 in0.0 mm 0.00 in0.0 mm 0.00 in0.0 mm
04:16 AM 42.2°F5.7°C 31.3°F-0.4°C 65% 2.0 mph N3.2 kmh N 8.0 mph12.9 kmh 30.20 in1022.7 mb 0.00 in0.0 mm 0.00 in0.0 mm 0.00 in0.0 mm
04:18 AM 42.2°F5.7°C 31.3°F-0.4°C 65% 2.0 mph N3.2 kmh N 8.0 mph12.9 kmh 30.21 in1023.0 mb 0.00 in0.0 mm 0.00 in0.0 mm 0.00 in0.0 mm
04:20 AM 42.2°F5.7°C 31.3°F-0.4°C 65% 2.0 mph N3.2 kmh N 8.0 mph12.9 kmh 30.21 in1023.0 mb 0.00 in0.0 mm 0.00 in0.0 mm 0.00 in0.0 mm
04:22 AM 42.3°F5.7°C 31.4°F-0.3°C 65% 2.0 mph NNE3.2 kmh NNE 8.0 mph12.9 kmh 30.20 in1022.7 mb 0.00 in0.0 mm 0.00 in0.0 mm 0.00 in0.0 mm
04:24 AM 42.3°F5.7°C 31.4°F-0.3°C 65% 4.0 mph NNE6.4 kmh NNE 8.0 mph12.9 kmh 30.20 in1022.7 mb 0.00 in0.0 mm 0.00 in0.0 mm 0.00 in0.0 mm
04:26 AM 42.3°F5.7°C 31.4°F-0.3°C 65% 2.0 mph N3.2 kmh N 8.0 mph12.9 kmh 30.20 in1022.7 mb 0.00 in0.0 mm 0.00 in0.0 mm 0.00 in0.0 mm
04:28 AM 42.4°F5.8°C 31.5°F-0.3°C 65% 1.0 mph NNE1.6 kmh NNE 8.0 mph12.9 kmh 30.20 in1022.7 mb 0.00 in0.0 mm 0.00 in0.0 mm 0.00 in0.0 mm
04:30 AM 42.5°F5.8°C 31.6°F-0.2°C 65% 1.0 mph N1.6 kmh N 8.0 mph12.9 kmh 30.20 in1022.7 mb 0.00 in0.0 mm 0.00 in0.0 mm 0.00 in0.0 mm
04:32 AM 42.5°F5.8°C 31.6°F-0.2°C 65% 1.0 mph NNE1.6 kmh NNE 3.0 mph4.8 kmh 30.21 in1023.0 mb 0.00 in0.0 mm 0.00 in0.0 mm 0.00 in0.0 mm
04:34 AM 42.5°F5.8°C 31.6°F-0.2°C 65% 2.0 mph NNE3.2 kmh NNE 4.0 mph6.4 kmh 30.21 in1023.0 mb 0.00 in0.0 mm 0.00 in0.0 mm 0.00 in0.0 mm
04:36 AM 42.5°F5.8°C 31.6°F-0.2°C 65% 1.0 mph NNE1.6 kmh NNE 4.0 mph6.4 kmh 30.21 in1023.0 mb 0.00 in0.0 mm 0.00 in0.0 mm 0.00 in0.0 mm
04:38 AM 42.6°F5.9°C 31.7°F-0.2°C 65% 1.0 mph NNE1.6 kmh NNE 4.0 mph6.4 kmh 30.21 in1023.0 mb 0.00 in0.0 mm 0.00 in0.0 mm 0.00 in0.0 mm
04:40 AM 42.6°F5.9°C 31.3°F-0.4°C 64% 1.0 mph NNE1.6 kmh NNE 4.0 mph6.4 kmh 30.21 in1023.0 mb 0.00 in0.0 mm 0.00 in0.0 mm 0.00 in0.0 mm
04:42 AM 42.6°F5.9°C 31.3°F-0.4°C 64% 3.0 mph NNE4.8 kmh NNE 4.0 mph6.4 kmh 30.21 in1023.0 mb 0.00 in0.0 mm 0.00 in0.0 mm 0.00 in0.0 mm
04:44 AM 42.7°F5.9°C 31.4°F-0.3°C 64% 2.0 mph N3.2 kmh N 4.0 mph6.4 kmh 30.20 in1022.7 mb 0.00 in0.0 mm 0.00 in0.0 mm 0.00 in0.0 mm
04:46 AM 42.8°F6.0°C 31.5°F-0.3°C 64% 3.0 mph N4.8 kmh N 4.0 mph6.4 kmh 30.20 in1022.7 mb 0.00 in0.0 mm 0.00 in0.0 mm 0.00 in0.0 mm
04:48 AM 42.8°F6.0°C 31.5°F-0.3°C 64% 3.0 mph N4.8 kmh N 4.0 mph6.4 kmh 30.20 in1022.7 mb 0.00 in0.0 mm 0.00 in0.0 mm 0.00 in0.0 mm
04:50 AM 42.8°F6.0°C 31.5°F-0.3°C 64% 2.0 mph NNE3.2 kmh NNE 4.0 mph6.4 kmh 30.20 in1022.7 mb 0.00 in0.0 mm 0.00 in0.0 mm 0.00 in0.0 mm
04:52 AM 42.8°F6.0°C 31.5°F-0.3°C 64% 5.0 mph NNE8.0 kmh NNE 5.0 mph8.0 kmh 30.20 in1022.7 mb 0.00 in0.0 mm 0.00 in0.0 mm 0.00 in0.0 mm
04:54 AM 42.9°F6.1°C 31.6°F-0.2°C 64% 4.0 mph NNE6.4 kmh NNE 5.0 mph8.0 kmh 30.20 in1022.7 mb 0.00 in0.0 mm 0.00 in0.0 mm 0.00 in0.0 mm
04:56 AM 42.9°F6.1°C 31.6°F-0.2°C 64% 1.0 mph NE1.6 kmh NE 5.0 mph8.0 kmh 30.20 in1022.7 mb 0.00 in0.0 mm 0.00 in0.0 mm 0.00 in0.0 mm
04:58 AM 42.9°F6.1°C 31.6°F-0.2°C 64% 1.0 mph NNE1.6 kmh NNE 5.0 mph8.0 kmh 30.20 in1022.7 mb 0.00 in0.0 mm 0.00 in0.0 mm 0.00 in0.0 mm
05:00 AM 43.0°F6.1°C 31.7°F-0.2°C 64% 1.0 mph N1.6 kmh N 5.0 mph8.0 kmh 30.20 in1022.7 mb 0.00 in0.0 mm 0.00 in0.0 mm 0.00 in0.0 mm
05:02 AM 42.9°F6.1°C 31.6°F-0.2°C 64% 1.0 mph NNE1.6 kmh NNE 2.0 mph3.2 kmh 30.21 in1023.0 mb 0.00 in0.0 mm 0.00 in0.0 mm 0.00 in0.0 mm
05:04 AM 43.0°F6.1°C 31.7°F-0.2°C 64% 1.0 mph N1.6 kmh N 3.0 mph4.8 kmh 30.21 in1023.0 mb 0.00 in0.0 mm 0.00 in0.0 mm 0.00 in0.0 mm
05:06 AM 43.0°F6.1°C 31.7°F-0.2°C 64% 2.0 mph NE3.2 kmh NE 4.0 mph6.4 kmh 30.21 in1023.0 mb 0.00 in0.0 mm 0.00 in0.0 mm 0.00 in0.0 mm
05:08 AM 43.0°F6.1°C 31.7°F-0.2°C 64% 2.0 mph NE3.2 kmh NE 4.0 mph6.4 kmh 30.21 in1023.0 mb 0.00 in0.0 mm 0.00 in0.0 mm 0.00 in0.0 mm
05:10 AM 43.0°F6.1°C 31.7°F-0.2°C 64% 1.0 mph NE1.6 kmh NE 4.0 mph6.4 kmh 30.21 in1023.0 mb 0.00 in0.0 mm 0.00 in0.0 mm 0.00 in0.0 mm
05:12 AM 43.0°F6.1°C 31.7°F-0.2°C 64% 3.0 mph NNE4.8 kmh NNE 4.0 mph6.4 kmh 30.21 in1023.0 mb 0.00 in0.0 mm 0.00 in0.0 mm 0.00 in0.0 mm
05:14 AM 43.0°F6.1°C 31.7°F-0.2°C 64% 1.0 mph N1.6 kmh N 5.0 mph8.0 kmh 30.21 in1023.0 mb 0.00 in0.0 mm 0.00 in0.0 mm 0.00 in0.0 mm
05:16 AM 43.0°F6.1°C 31.3°F-0.4°C 63% 2.0 mph N3.2 kmh N 5.0 mph8.0 kmh 30.21 in1023.0 mb 0.00 in0.0 mm 0.00 in0.0 mm 0.00 in0.0 mm
05:18 AM 43.0°F6.1°C 31.7°F-0.2°C 64% 2.0 mph N3.2 kmh N 5.0 mph8.0 kmh 30.21 in1023.0 mb 0.00 in0.0 mm 0.00 in0.0 mm 0.00 in0.0 mm
05:20 AM 43.1°F6.2°C 31.8°F-0.1°C 64% 3.0 mph N4.8 kmh N 5.0 mph8.0 kmh 30.21 in1023.0 mb 0.00 in0.0 mm 0.00 in0.0 mm 0.00 in0.0 mm
05:22 AM 43.0°F6.1°C 31.7°F-0.2°C 64% 4.0 mph N6.4 kmh N 5.0 mph8.0 kmh 30.22 in1023.4 mb 0.00 in0.0 mm 0.00 in0.0 mm 0.00 in0.0 mm
05:24 AM 43.0°F6.1°C 31.3°F-0.4°C 63% 4.0 mph N6.4 kmh N 5.0 mph8.0 kmh 30.21 in1023.0 mb 0.00 in0.0 mm 0.00 in0.0 mm 0.00 in0.0 mm
05:26 AM 43.0°F6.1°C 31.3°F-0.4°C 63% 2.0 mph N3.2 kmh N 5.0 mph8.0 kmh 30.21 in1023.0 mb 0.00 in0.0 mm 0.00 in0.0 mm 0.00 in0.0 mm
05:28 AM 43.1°F6.2°C 31.4°F-0.3°C 63% 1.0 mph NE1.6 kmh NE 5.0 mph8.0 kmh 30.21 in1023.0 mb 0.00 in0.0 mm 0.00 in0.0 mm 0.00 in0.0 mm
05:30 AM 43.1°F6.2°C 31.4°F-0.3°C 63% 1.0 mph N1.6 kmh N 5.0 mph8.0 kmh 30.22 in1023.4 mb 0.00 in0.0 mm 0.00 in0.0 mm 0.00 in0.0 mm
05:32 AM 43.1°F6.2°C 31.4°F-0.3°C 63% 3.0 mph N4.8 kmh N 4.0 mph6.4 kmh 30.22 in1023.4 mb 0.00 in0.0 mm 0.00 in0.0 mm 0.00 in0.0 mm
05:34 AM 43.1°F6.2°C 31.8°F-0.1°C 64% 1.0 mph N1.6 kmh N 4.0 mph6.4 kmh 30.22 in1023.4 mb 0.00 in0.0 mm 0.00 in0.0 mm 0.00 in0.0 mm
05:36 AM 43.1°F6.2°C 31.8°F-0.1°C 64% 2.0 mph N3.2 kmh N 4.0 mph6.4 kmh 30.22 in1023.4 mb 0.00 in0.0 mm 0.00 in0.0 mm 0.00 in0.0 mm
05:38 AM 43.1°F6.2°C 31.8°F-0.1°C 64% 3.0 mph N4.8 kmh N 4.0 mph6.4 kmh 30.22 in1023.4 mb 0.00 in0.0 mm 0.00 in0.0 mm 0.00 in0.0 mm
05:40 AM 43.2°F6.2°C 31.9°F-0.1°C 64% 2.0 mph NNW3.2 kmh NNW 4.0 mph6.4 kmh 30.23 in1023.7 mb 0.00 in0.0 mm 0.00 in0.0 mm 0.00 in0.0 mm
05:42 AM 43.2°F6.2°C 31.9°F-0.1°C 64% 3.0 mph NNW4.8 kmh NNW 4.0 mph6.4 kmh 30.23 in1023.7 mb 0.00 in0.0 mm 0.00 in0.0 mm 0.00 in0.0 mm
05:44 AM 43.2°F6.2°C 31.9°F-0.1°C 64% 3.0 mph NNW4.8 kmh NNW 4.0 mph6.4 kmh 30.23 in1023.7 mb 0.00 in0.0 mm 0.00 in0.0 mm 0.00 in0.0 mm
05:46 AM 43.3°F6.3°C 32.0°F0.0°C 64% 3.0 mph N4.8 kmh N 4.0 mph6.4 kmh 30.23 in1023.7 mb 0.00 in0.0 mm 0.00 in0.0 mm 0.00 in0.0 mm
05:48 AM 43.3°F6.3°C 32.0°F0.0°C 64% 3.0 mph NW4.8 kmh NW 4.0 mph6.4 kmh 30.23 in1023.7 mb 0.00 in0.0 mm 0.00 in0.0 mm 0.00 in0.0 mm
05:50 AM 43.3°F6.3°C 32.0°F0.0°C 64% 5.0 mph NW8.0 kmh NW 5.0 mph8.0 kmh 30.23 in1023.7 mb 0.00 in0.0 mm 0.00 in0.0 mm 0.00 in0.0 mm
05:52 AM 43.3°F6.3°C 32.0°F0.0°C 64% 4.0 mph N6.4 kmh N 5.0 mph8.0 kmh 30.23 in1023.7 mb 0.00 in0.0 mm 0.00 in0.0 mm 0.00 in0.0 mm
05:54 AM 43.3°F6.3°C 32.0°F0.0°C 64% Calm Calm 5.0 mph8.0 kmh 30.23 in1023.7 mb 0.00 in0.0 mm 0.00 in0.0 mm 0.00 in0.0 mm
05:56 AM 43.2°F6.2°C 31.9°F-0.1°C 64% 2.0 mph N3.2 kmh N 5.0 mph8.0 kmh 30.23 in1023.7 mb 0.00 in0.0 mm 0.00 in0.0 mm 0.00 in0.0 mm
05:58 AM 43.2°F6.2°C 31.9°F-0.1°C 64% 2.0 mph N3.2 kmh N 5.0 mph8.0 kmh 30.23 in1023.7 mb 0.00 in0.0 mm 0.00 in0.0 mm 0.00 in0.0 mm
06:00 AM 43.2°F6.2°C 31.9°F-0.1°C 64% 3.0 mph NNW4.8 kmh NNW 5.0 mph8.0 kmh 30.24 in1024.0 mb 0.00 in0.0 mm 0.00 in0.0 mm 0.00 in0.0 mm
06:02 AM 43.2°F6.2°C 31.9°F-0.1°C 64% 3.0 mph NNW4.8 kmh NNW 4.0 mph6.4 kmh 30.24 in1024.0 mb 0.00 in0.0 mm 0.00 in0.0 mm 0.00 in0.0 mm
06:04 AM 43.2°F6.2°C 31.9°F-0.1°C 64% 2.0 mph NNW3.2 kmh NNW 4.0 mph6.4 kmh 30.24 in1024.0 mb 0.00 in0.0 mm 0.00 in0.0 mm 0.00 in0.0 mm
06:06 AM 43.3°F6.3°C 32.0°F0.0°C 64% 3.0 mph NNW4.8 kmh NNW 4.0 mph6.4 kmh 30.24 in1024.0 mb 0.00 in0.0 mm 0.00 in0.0 mm 0.00 in0.0 mm
06:08 AM 43.3°F6.3°C 32.0°F0.0°C 64% 2.0 mph NNW3.2 kmh NNW 4.0 mph6.4 kmh 30.24 in1024.0 mb 0.00 in0.0 mm 0.00 in0.0 mm 0.00 in0.0 mm
06:09 AM 43.3°F6.3°C 31.6°F-0.2°C 63% 2.0 mph N3.2 kmh N 4.0 mph6.4 kmh 30.24 in1024.0 mb 0.00 in0.0 mm 0.00 in0.0 mm 0.00 in0.0 mm
06:12 AM 43.3°F6.3°C 31.6°F-0.2°C 63% 3.0 mph N4.8 kmh N 4.0 mph6.4 kmh 30.24 in1024.0 mb 0.00 in0.0 mm 0.00 in0.0 mm 0.00 in0.0 mm
06:14 AM 43.3°F6.3°C 31.6°F-0.2°C 63% 3.0 mph N4.8 kmh N 4.0 mph6.4 kmh 30.24 in1024.0 mb 0.00 in0.0 mm 0.00 in0.0 mm 0.00 in0.0 mm
06:16 AM 43.3°F6.3°C 31.6°F-0.2°C 63% 3.0 mph N4.8 kmh N 4.0 mph6.4 kmh 30.24 in1024.0 mb 0.00 in0.0 mm 0.00 in0.0 mm 0.00 in0.0 mm
06:18 AM 43.3°F6.3°C 31.6°F-0.2°C 63% 4.0 mph N6.4 kmh N 5.0 mph8.0 kmh 30.24 in1024.0 mb 0.00 in0.0 mm 0.00 in0.0 mm 0.00 in0.0 mm
06:20 AM 43.3°F6.3°C 31.6°F-0.2°C 63% 3.0 mph N4.8 kmh N 5.0 mph8.0 kmh 30.24 in1024.0 mb 0.00 in0.0 mm 0.00 in0.0 mm 0.00 in0.0 mm
06:22 AM 43.3°F6.3°C 31.6°F-0.2°C 63% 4.0 mph NNW6.4 kmh NNW 5.0 mph8.0 kmh 30.24 in1024.0 mb 0.00 in0.0 mm 0.00 in0.0 mm 0.00 in0.0 mm
06:24 AM 43.3°F6.3°C 31.6°F-0.2°C 63% 3.0 mph NW4.8 kmh NW 6.0 mph9.7 kmh 30.24 in1024.0 mb 0.00 in0.0 mm 0.00 in0.0 mm 0.00 in0.0 mm
06:26 AM 43.3°F6.3°C 32.0°F0.0°C 64% Calm Calm 6.0 mph9.7 kmh 30.24 in1024.0 mb 0.00 in0.0 mm 0.00 in0.0 mm 0.00 in0.0 mm
06:28 AM 43.3°F6.3°C 31.6°F-0.2°C 63% 1.0 mph N1.6 kmh N 6.0 mph9.7 kmh 30.24 in1024.0 mb 0.00 in0.0 mm 0.00 in0.0 mm 0.00 in0.0 mm
06:30 AM 43.3°F6.3°C 31.6°F-0.2°C 63% 2.0 mph N3.2 kmh N 6.0 mph9.7 kmh 30.24 in1024.0 mb 0.00 in0.0 mm 0.00 in0.0 mm 0.00 in0.0 mm
06:32 AM 43.3°F6.3°C 31.6°F-0.2°C 63% 1.0 mph N1.6 kmh N 4.0 mph6.4 kmh 30.24 in1024.0 mb 0.00 in0.0 mm 0.00 in0.0 mm 0.00 in0.0 mm
06:34 AM 43.3°F6.3°C 32.0°F0.0°C 64% 2.0 mph NNE3.2 kmh NNE 4.0 mph6.4 kmh 30.24 in1024.0 mb 0.00 in0.0 mm 0.00 in0.0 mm 0.00 in0.0 mm
06:36 AM 43.3°F6.3°C 32.0°F0.0°C 64% Calm Calm 4.0 mph6.4 kmh 30.24 in1024.0 mb 0.00 in0.0 mm 0.00 in0.0 mm 0.00 in0.0 mm
06:38 AM 43.3°F6.3°C 32.0°F0.0°C 64% 1.0 mph NNE1.6 kmh NNE 4.0 mph6.4 kmh 30.24 in1024.0 mb 0.00 in0.0 mm 0.00 in0.0 mm 0.00 in0.0 mm
06:40 AM 43.3°F6.3°C 32.0°F0.0°C 64% Calm Calm 4.0 mph6.4 kmh 30.24 in1024.0 mb 0.00 in0.0 mm 0.00 in0.0 mm 0.00 in0.0 mm
06:42 AM 43.3°F6.3°C 32.0°F0.0°C 64% 2.0 mph NNE3.2 kmh NNE 4.0 mph6.4 kmh 30.24 in1024.0 mb 0.00 in0.0 mm 0.00 in0.0 mm 0.00 in0.0 mm
06:44 AM 43.3°F6.3°C 32.0°F0.0°C 64% 3.0 mph N4.8 kmh N 4.0 mph6.4 kmh 30.24 in1024.0 mb 0.00 in0.0 mm 0.00 in0.0 mm 0.00 in0.0 mm
06:45 AM 43.3°F6.3°C 32.0°F0.0°C 64% 1.0 mph N1.6 kmh N 4.0 mph6.4 kmh 30.25 in1024.4 mb 0.00 in0.0 mm 0.00 in0.0 mm 0.00 in0.0 mm
06:48 AM 43.3°F6.3°C 32.0°F0.0°C 64% Calm Calm 4.0 mph6.4 kmh 30.25 in1024.4 mb 0.00 in0.0 mm 0.00 in0.0 mm 0.00 in0.0 mm
06:50 AM 43.3°F6.3°C 32.0°F0.0°C 64% Calm Calm 4.0 mph6.4 kmh 30.25 in1024.4 mb 0.00 in0.0 mm 0.00 in0.0 mm 0.00 in0.0 mm
06:52 AM 43.3°F6.3°C 32.0°F0.0°C 64% 2.0 mph N3.2 kmh N 4.0 mph6.4 kmh 30.25 in1024.4 mb 0.00 in0.0 mm 0.00 in0.0 mm 0.00 in0.0 mm
06:54 AM 43.3°F6.3°C 32.0°F0.0°C 64% 4.0 mph N6.4 kmh N 4.0 mph6.4 kmh 30.24 in1024.0 mb 0.00 in0.0 mm 0.00 in0.0 mm 0.00 in0.0 mm
06:56 AM 43.4°F6.3°C 32.1°F0.1°C 64% 2.0 mph NNE3.2 kmh NNE 4.0 mph6.4 kmh 30.25 in1024.4 mb 0.00 in0.0 mm 0.00 in0.0 mm 0.00 in0.0 mm
06:58 AM 43.4°F6.3°C 32.1°F0.1°C 64% 1.0 mph N1.6 kmh N 4.0 mph6.4 kmh 30.24 in1024.0 mb 0.00 in0.0 mm 0.00 in0.0 mm 0.00 in0.0 mm
07:00 AM 43.4°F6.3°C 32.1°F0.1°C 64% 1.0 mph NNE1.6 kmh NNE 4.0 mph6.4 kmh 30.24 in1024.0 mb 0.00 in0.0 mm 0.00 in0.0 mm 0.00 in0.0 mm
07:02 AM 43.4°F6.3°C 32.1°F0.1°C 64% 2.0 mph NNE3.2 kmh NNE 3.0 mph4.8 kmh 30.24 in1024.0 mb 0.00 in0.0 mm 0.00 in0.0 mm 0.00 in0.0 mm
07:04 AM 43.6°F6.4°C 32.2°F0.1°C 64% 2.0 mph NE3.2 kmh NE 4.0 mph6.4 kmh 30.24 in1024.0 mb 0.00 in0.0 mm 0.00 in0.0 mm 0.00 in0.0 mm
07:06 AM 43.5°F6.4°C 32.2°F0.1°C 64% 1.0 mph N1.6 kmh N 4.0 mph6.4 kmh 30.24 in1024.0 mb 0.00 in0.0 mm 0.00 in0.0 mm 0.00 in0.0 mm
07:08 AM 43.6°F6.4°C 32.2°F0.1°C 64% 2.0 mph N3.2 kmh N 4.0 mph6.4 kmh 30.25 in1024.4 mb 0.00 in0.0 mm 0.00 in0.0 mm 0.00 in0.0 mm
07:10 AM 43.7°F6.5°C 32.3°F0.2°C 64% 2.0 mph N3.2 kmh N 4.0 mph6.4 kmh 30.25 in1024.4 mb 0.00 in0.0 mm 0.00 in0.0 mm 0.00 in0.0 mm
07:12 AM 43.8°F6.6°C 32.4°F0.2°C 64% 1.0 mph N1.6 kmh N 4.0 mph6.4 kmh 30.25 in1024.4 mb 0.00 in0.0 mm 0.00 in0.0 mm 0.00 in0.0 mm
07:14 AM 43.8°F6.6°C 32.4°F0.2°C 64% 1.0 mph N1.6 kmh N 4.0 mph6.4 kmh 30.25 in1024.4 mb 0.00 in0.0 mm 0.00 in0.0 mm 0.00 in0.0 mm
07:16 AM 43.8°F6.6°C 32.4°F0.2°C 64% 3.0 mph N4.8 kmh N 4.0 mph6.4 kmh 30.25 in1024.4 mb 0.00 in0.0 mm 0.00 in0.0 mm 0.00 in0.0 mm
07:18 AM 43.9°F6.6°C 32.5°F0.3°C 64% 2.0 mph N3.2 kmh N 4.0 mph6.4 kmh 30.25 in1024.4 mb 0.00 in0.0 mm 0.00 in0.0 mm 0.00 in0.0 mm
07:20 AM 44.0°F6.7°C 32.2°F0.1°C 63% 1.0 mph N1.6 kmh N 5.0 mph8.0 kmh 30.25 in1024.4 mb 0.00 in0.0 mm 0.00 in0.0 mm 0.00 in0.0 mm
07:22 AM 44.1°F6.7°C 32.3°F0.2°C 63% 1.0 mph N1.6 kmh N 5.0 mph8.0 kmh 30.26 in1024.7 mb 0.00 in0.0 mm 0.00 in0.0 mm 0.00 in0.0 mm
07:24 AM 44.2°F6.8°C 32.4°F0.2°C 63% 2.0 mph NNE3.2 kmh NNE 5.0 mph8.0 kmh 30.25 in1024.4 mb 0.00 in0.0 mm 0.00 in0.0 mm 0.00 in0.0 mm
07:26 AM 44.3°F6.8°C 32.1°F0.1°C 62% 1.0 mph ENE1.6 kmh ENE 5.0 mph8.0 kmh 30.25 in1024.4 mb 0.00 in0.0 mm 0.00 in0.0 mm 0.00 in0.0 mm
07:28 AM 44.4°F6.9°C 32.2°F0.1°C 62% 2.0 mph ENE3.2 kmh ENE 5.0 mph8.0 kmh 30.25 in1024.4 mb 0.00 in0.0 mm 0.00 in0.0 mm 0.00 in0.0 mm
07:30 AM 44.6°F7.0°C 32.4°F0.2°C 62% 2.0 mph ENE3.2 kmh ENE 5.0 mph8.0 kmh 30.25 in1024.4 mb 0.00 in0.0 mm 0.00 in0.0 mm 0.00 in0.0 mm
07:32 AM 44.7°F7.1°C 32.1°F0.1°C 61% 1.0 mph ENE1.6 kmh ENE 3.0 mph4.8 kmh 30.25 in1024.4 mb 0.00 in0.0 mm 0.00 in0.0 mm 0.00 in0.0 mm
07:34 AM 44.9°F7.2°C 31.9°F-0.1°C 60% 1.0 mph NNE1.6 kmh NNE 4.0 mph6.4 kmh 30.25 in1024.4 mb 0.00 in0.0 mm 0.00 in0.0 mm 0.00 in0.0 mm
07:36 AM 45.0°F7.2°C 32.0°F0.0°C 60% 2.0 mph NNE3.2 kmh NNE 4.0 mph6.4 kmh 30.25 in1024.4 mb 0.00 in0.0 mm 0.00 in0.0 mm 0.00 in0.0 mm
07:38 AM 45.0°F7.2°C 32.0°F0.0°C 60% 4.0 mph NNE6.4 kmh NNE 4.0 mph6.4 kmh 30.25 in1024.4 mb 0.00 in0.0 mm 0.00 in0.0 mm 0.00 in0.0 mm
07:40 AM 45.1°F7.3°C 31.6°F-0.2°C 59% 1.0 mph NNE1.6 kmh NNE 4.0 mph6.4 kmh 30.26 in1024.7 mb 0.00 in0.0 mm 0.00 in0.0 mm 0.00 in0.0 mm
07:42 AM 45.2°F7.3°C 32.2°F0.1°C 60% 1.0 mph NNE1.6 kmh NNE 4.0 mph6.4 kmh 30.25 in1024.4 mb 0.00 in0.0 mm 0.00 in0.0 mm 0.00 in0.0 mm
07:44 AM 45.3°F7.4°C 32.3°F0.2°C 60% 1.0 mph NNE1.6 kmh NNE 4.0 mph6.4 kmh 30.25 in1024.4 mb 0.00 in0.0 mm 0.00 in0.0 mm 0.00 in0.0 mm
07:46 AM 45.5°F7.5°C 32.4°F0.2°C 60% 2.0 mph ENE3.2 kmh ENE 4.0 mph6.4 kmh 30.25 in1024.4 mb 0.00 in0.0 mm 0.00 in0.0 mm 0.00 in0.0 mm
07:48 AM 45.6°F7.6°C 32.5°F0.3°C 60% 1.0 mph ENE1.6 kmh ENE 4.0 mph6.4 kmh 30.25 in1024.4 mb 0.00 in0.0 mm 0.00 in0.0 mm 0.00 in0.0 mm
07:50 AM 45.7°F7.6°C 32.6°F0.3°C 60% 1.0 mph ENE1.6 kmh ENE 4.0 mph6.4 kmh 30.25 in1024.4 mb 0.00 in0.0 mm 0.00 in0.0 mm 0.00 in0.0 mm
07:52 AM 45.8°F7.7°C 32.7°F0.4°C 60% 4.0 mph E6.4 kmh E 4.0 mph6.4 kmh 30.25 in1024.4 mb 0.00 in0.0 mm 0.00 in0.0 mm 0.00 in0.0 mm
07:54 AM 45.8°F7.7°C 31.9°F-0.1°C 58% 3.0 mph ENE4.8 kmh ENE 5.0 mph8.0 kmh 30.25 in1024.4 mb 0.00 in0.0 mm 0.00 in0.0 mm 0.00 in0.0 mm
07:56 AM 45.8°F7.7°C 32.3°F0.2°C 59% 3.0 mph ENE4.8 kmh ENE 5.0 mph8.0 kmh 30.25 in1024.4 mb 0.00 in0.0 mm 0.00 in0.0 mm 0.00 in0.0 mm
07:58 AM 45.9°F7.7°C 32.4°F0.2°C 59% 3.0 mph NE4.8 kmh NE 5.0 mph8.0 kmh 30.25 in1024.4 mb 0.00 in0.0 mm 0.00 in0.0 mm 0.00 in0.0 mm
08:00 AM 45.9°F7.7°C 32.4°F0.2°C 59% 2.0 mph NE3.2 kmh NE 5.0 mph8.0 kmh 30.25 in1024.4 mb 0.00 in0.0 mm 0.00 in0.0 mm 0.00 in0.0 mm
08:02 AM 46.0°F7.8°C 32.5°F0.3°C 59% 3.0 mph NNE4.8 kmh NNE 4.0 mph6.4 kmh 30.25 in1024.4 mb 0.00 in0.0 mm 0.00 in0.0 mm 0.00 in0.0 mm
08:04 AM 46.2°F7.9°C 32.7°F0.4°C 59% 2.0 mph NE3.2 kmh NE 5.0 mph8.0 kmh 30.25 in1024.4 mb 0.00 in0.0 mm 0.00 in0.0 mm 0.00 in0.0 mm
08:06 AM 46.4°F8.0°C 32.9°F0.5°C 59% 1.0 mph NE1.6 kmh NE 5.0 mph8.0 kmh 30.25 in1024.4 mb 0.00 in0.0 mm 0.00 in0.0 mm 0.00 in0.0 mm
08:08 AM 46.5°F8.1°C 33.0°F0.6°C 59% 1.0 mph NE1.6 kmh NE 5.0 mph8.0 kmh 30.25 in1024.4 mb 0.00 in0.0 mm 0.00 in0.0 mm 0.00 in0.0 mm
08:10 AM 46.7°F8.2°C 33.2°F0.7°C 59% Calm Calm 5.0 mph8.0 kmh 30.25 in1024.4 mb 0.00 in0.0 mm 0.00 in0.0 mm 0.00 in0.0 mm
08:12 AM 47.0°F8.3°C 33.4°F0.8°C 59% 3.0 mph NE4.8 kmh NE 5.0 mph8.0 kmh 30.25 in1024.4 mb 0.00 in0.0 mm 0.00 in0.0 mm 0.00 in0.0 mm
08:14 AM 47.2°F8.4°C 33.2°F0.7°C 58% Calm Calm 5.0 mph8.0 kmh 30.25 in1024.4 mb 0.00 in0.0 mm 0.00 in0.0 mm 0.00 in0.0 mm
08:16 AM 47.6°F8.7°C 33.6°F0.9°C 58% 2.0 mph NE3.2 kmh NE 5.0 mph8.0 kmh 30.25 in1024.4 mb 0.00 in0.0 mm 0.00 in0.0 mm 0.00 in0.0 mm
08:18 AM 47.8°F8.8°C 33.3°F0.7°C 57% 1.0 mph NE1.6 kmh NE 5.0 mph8.0 kmh 30.25 in1024.4 mb 0.00 in0.0 mm 0.00 in0.0 mm 0.00 in0.0 mm
08:20 AM 48.0°F8.9°C 33.5°F0.8°C 57% 2.0 mph NE3.2 kmh NE 5.0 mph8.0 kmh 30.25 in1024.4 mb 0.00 in0.0 mm 0.00 in0.0 mm 0.00 in0.0 mm
08:22 AM 48.2°F9.0°C 33.3°F0.7°C 56% Calm Calm 5.0 mph8.0 kmh 30.25 in1024.4 mb 0.00 in0.0 mm 0.00 in0.0 mm 0.00 in0.0 mm
08:24 AM 48.3°F9.1°C 33.4°F0.8°C 56% 2.0 mph NE3.2 kmh NE 5.0 mph8.0 kmh 30.25 in1024.4 mb 0.00 in0.0 mm 0.00 in0.0 mm 0.00 in0.0 mm
08:26 AM 48.5°F9.2°C 33.5°F0.8°C 56% Calm Calm 5.0 mph8.0 kmh 30.24 in1024.0 mb 0.00 in0.0 mm 0.00 in0.0 mm 0.00 in0.0 mm
08:27 AM 48.6°F9.2°C 33.6°F0.9°C 56% 1.0 mph NE1.6 kmh NE 5.0 mph8.0 kmh 30.24 in1024.0 mb 0.00 in0.0 mm 0.00 in0.0 mm 0.00 in0.0 mm
08:30 AM 48.7°F9.3°C 33.7°F0.9°C 56% 3.0 mph NW4.8 kmh NW 5.0 mph8.0 kmh 30.24 in1024.0 mb 0.00 in0.0 mm 0.00 in0.0 mm 0.00 in0.0 mm
08:32 AM 48.5°F9.2°C 33.5°F0.8°C 56% 3.0 mph NNW4.8 kmh NNW 5.0 mph8.0 kmh 30.25 in1024.4 mb 0.00 in0.0 mm 0.00 in0.0 mm 0.00 in0.0 mm
08:34 AM 48.4°F9.1°C 33.4°F0.8°C 56% 1.0 mph N1.6 kmh N 5.0 mph8.0 kmh 30.25 in1024.4 mb 0.00 in0.0 mm 0.00 in0.0 mm 0.00 in0.0 mm
08:36 AM 48.5°F9.2°C 34.0°F1.1°C 57% 2.0 mph N3.2 kmh N 5.0 mph8.0 kmh 30.25 in1024.4 mb 0.00 in0.0 mm 0.00 in0.0 mm 0.00 in0.0 mm
08:38 AM 48.6°F9.2°C 33.6°F0.9°C 56% Calm Calm 5.0 mph8.0 kmh 30.25 in1024.4 mb 0.00 in0.0 mm 0.00 in0.0 mm 0.00 in0.0 mm
08:40 AM 48.8°F9.3°C 33.8°F1.0°C 56% 1.0 mph N1.6 kmh N 5.0 mph8.0 kmh 30.25 in1024.4 mb 0.00 in0.0 mm 0.00 in0.0 mm 0.00 in0.0 mm
08:42 AM 48.8°F9.3°C 32.9°F0.5°C 54% 3.0 mph NW4.8 kmh NW 6.0 mph9.7 kmh 30.25 in1024.4 mb 0.00 in0.0 mm 0.00 in0.0 mm 0.00 in0.0 mm
08:44 AM 48.7°F9.3°C 32.8°F0.4°C 54% 3.0 mph NW4.8 kmh NW 6.0 mph9.7 kmh 30.25 in1024.4 mb 0.00 in0.0 mm 0.00 in0.0 mm 0.00 in0.0 mm
08:46 AM 48.6°F9.2°C 33.6°F0.9°C 56% 2.0 mph NNW3.2 kmh NNW 6.0 mph9.7 kmh 30.25 in1024.4 mb 0.00 in0.0 mm 0.00 in0.0 mm 0.00 in0.0 mm
08:48 AM 48.7°F9.3°C 33.7°F0.9°C 56% 3.0 mph NNW4.8 kmh NNW 6.0 mph9.7 kmh 30.25 in1024.4 mb 0.00 in0.0 mm 0.00 in0.0 mm 0.00 in0.0 mm
08:50 AM 48.8°F9.3°C 33.4°F0.8°C 55% 2.0 mph N3.2 kmh N 6.0 mph9.7 kmh 30.25 in1024.4 mb 0.00 in0.0 mm 0.00 in0.0 mm 0.00 in0.0 mm
08:52 AM 48.9°F9.4°C 33.5°F0.8°C 55% 3.0 mph N4.8 kmh N 6.0 mph9.7 kmh 30.24 in1024.0 mb 0.00 in0.0 mm 0.00 in0.0 mm 0.00 in0.0 mm
08:54 AM 49.0°F9.4°C 33.6°F0.9°C 55% 2.0 mph NNW3.2 kmh NNW 6.0 mph9.7 kmh 30.24 in1024.0 mb 0.00 in0.0 mm 0.00 in0.0 mm 0.00 in0.0 mm
08:56 AM 49.1°F9.5°C 33.2°F0.7°C 54% 1.0 mph NNW1.6 kmh NNW 6.0 mph9.7 kmh 30.24 in1024.0 mb 0.00 in0.0 mm 0.00 in0.0 mm 0.00 in0.0 mm
08:58 AM 49.1°F9.5°C 32.7°F0.4°C 53% Calm Calm 6.0 mph9.7 kmh 30.24 in1024.0 mb 0.00 in0.0 mm 0.00 in0.0 mm 0.00 in0.0 mm
09:00 AM 49.3°F9.6°C 32.9°F0.5°C 53% 1.0 mph NNW1.6 kmh NNW 6.0 mph9.7 kmh 30.24 in1024.0 mb 0.00 in0.0 mm 0.00 in0.0 mm 0.00 in0.0 mm
09:02 AM 49.5°F9.7°C 33.1°F0.6°C 53% 1.0 mph NNW1.6 kmh NNW 2.0 mph3.2 kmh 30.25 in1024.4 mb 0.00 in0.0 mm 0.00 in0.0 mm 0.00 in0.0 mm
09:04 AM 49.7°F9.8°C 33.3°F0.7°C 53% Calm Calm 2.0 mph3.2 kmh 30.25 in1024.4 mb 0.00 in0.0 mm 0.00 in0.0 mm 0.00 in0.0 mm
09:06 AM 50.0°F10.0°C 33.6°F0.9°C 53% 1.0 mph NNW1.6 kmh NNW 2.0 mph3.2 kmh 30.25 in1024.4 mb 0.00 in0.0 mm 0.00 in0.0 mm 0.00 in0.0 mm
09:08 AM 50.1°F10.1°C 33.2°F0.7°C 52% 2.0 mph W3.2 kmh W 3.0 mph4.8 kmh 30.25 in1024.4 mb 0.00 in0.0 mm 0.00 in0.0 mm 0.00 in0.0 mm
09:10 AM 50.3°F10.2°C 32.9°F0.5°C 51% 3.0 mph W4.8 kmh W 3.0 mph4.8 kmh 30.25 in1024.4 mb 0.00 in0.0 mm 0.00 in0.0 mm 0.00 in0.0 mm
09:12 AM 50.1°F10.1°C 32.7°F0.4°C 51% 1.0 mph W1.6 kmh W 3.0 mph4.8 kmh 30.25 in1024.4 mb 0.00 in0.0 mm 0.00 in0.0 mm 0.00 in0.0 mm
09:14 AM 50.2°F10.1°C 33.7°F0.9°C 53% 2.0 mph WSW3.2 kmh WSW 3.0 mph4.8 kmh 30.25 in1024.4 mb 0.00 in0.0 mm 0.00 in0.0 mm 0.00 in0.0 mm
09:16 AM 50.3°F10.2°C 33.4°F0.8°C 52% 2.0 mph WSW3.2 kmh WSW 3.0 mph4.8 kmh 30.25 in1024.4 mb 0.00 in0.0 mm 0.00 in0.0 mm 0.00 in0.0 mm
09:18 AM 50.3°F10.2°C 33.4°F0.8°C 52% 1.0 mph WSW1.6 kmh WSW 3.0 mph4.8 kmh 30.25 in1024.4 mb 0.00 in0.0 mm 0.00 in0.0 mm 0.00 in0.0 mm
09:20 AM 50.3°F10.2°C 33.4°F0.8°C 52% 1.0 mph WSW1.6 kmh WSW 3.0 mph4.8 kmh 30.25 in1024.4 mb 0.00 in0.0 mm 0.00 in0.0 mm 0.00 in0.0 mm
09:22 AM 50.3°F10.2°C 33.8°F1.0°C 53% 1.0 mph WSW1.6 kmh WSW 3.0 mph4.8 kmh 30.25 in1024.4 mb 0.00 in0.0 mm 0.00 in0.0 mm 0.00 in0.0 mm
09:24 AM 50.3°F10.2°C 33.4°F0.8°C 52% Calm Calm 3.0 mph4.8 kmh 30.25 in1024.4 mb 0.00 in0.0 mm 0.00 in0.0 mm 0.00 in0.0 mm
09:26 AM 50.4°F10.2°C 33.9°F1.1°C 53% 1.0 mph WSW1.6 kmh WSW 3.0 mph4.8 kmh 30.25 in1024.4 mb 0.00 in0.0 mm 0.00 in0.0 mm 0.00 in0.0 mm
09:27 AM 50.5°F10.3°C 33.6°F0.9°C 52% Calm Calm 3.0 mph4.8 kmh 30.25 in1024.4 mb 0.00 in0.0 mm 0.00 in0.0 mm 0.00 in0.0 mm
09:30 AM 50.7°F10.4°C 34.2°F1.2°C 53% Calm Calm 3.0 mph4.8 kmh 30.25 in1024.4 mb 0.00 in0.0 mm 0.00 in0.0 mm 0.00 in0.0 mm
09:32 AM 50.8°F10.4°C 34.3°F1.3°C 53% Calm Calm 1.0 mph1.6 kmh 30.24 in1024.0 mb 0.00 in0.0 mm 0.00 in0.0 mm 0.00 in0.0 mm
09:34 AM 51.1°F10.6°C 34.1°F1.2°C 52% 1.0 mph WSW1.6 kmh WSW 3.0 mph4.8 kmh 30.24 in1024.0 mb 0.00 in0.0 mm 0.00 in0.0 mm 0.00 in0.0 mm
09:36 AM 51.1°F10.6°C 33.6°F0.9°C 51% Calm Calm 3.0 mph4.8 kmh 30.25 in1024.4 mb 0.00 in0.0 mm 0.00 in0.0 mm 0.00 in0.0 mm
09:38 AM 51.2°F10.7°C 34.2°F1.2°C 52% Calm Calm 3.0 mph4.8 kmh 30.25 in1024.4 mb 0.00 in0.0 mm 0.00 in0.0 mm 0.00 in0.0 mm
09:40 AM 51.2°F10.7°C 33.7°F0.9°C 51% Calm Calm 3.0 mph4.8 kmh 30.25 in1024.4 mb 0.00 in0.0 mm 0.00 in0.0 mm 0.00 in0.0 mm
09:42 AM 51.3°F10.7°C 33.8°F1.0°C 51% 2.0 mph WSW3.2 kmh WSW 4.0 mph6.4 kmh 30.24 in1024.0 mb 0.00 in0.0 mm 0.00 in0.0 mm 0.00 in0.0 mm
09:44 AM 51.3°F10.7°C 33.3°F0.7°C 50% 3.0 mph S4.8 kmh S 4.0 mph6.4 kmh 30.25 in1024.4 mb 0.00 in0.0 mm 0.00 in0.0 mm 0.00 in0.0 mm
09:46 AM 51.3°F10.7°C 33.8°F1.0°C 51% Calm Calm 5.0 mph8.0 kmh 30.25 in1024.4 mb 0.00 in0.0 mm 0.00 in0.0 mm 0.00 in0.0 mm
09:48 AM 51.3°F10.7°C 34.3°F1.3°C 52% Calm Calm 5.0 mph8.0 kmh 30.24 in1024.0 mb 0.00 in0.0 mm 0.00 in0.0 mm 0.00 in0.0 mm
09:50 AM 51.5°F10.8°C 33.5°F0.8°C 50% 3.0 mph SSE4.8 kmh SSE 5.0 mph8.0 kmh 30.25 in1024.4 mb 0.00 in0.0 mm 0.00 in0.0 mm 0.00 in0.0 mm
09:52 AM 51.6°F10.9°C 33.6°F0.9°C 50% 1.0 mph SSE1.6 kmh SSE 5.0 mph8.0 kmh 30.24 in1024.0 mb 0.00 in0.0 mm 0.00 in0.0 mm 0.00 in0.0 mm
09:54 AM 51.7°F10.9°C 33.7°F0.9°C 50% Calm Calm 5.0 mph8.0 kmh 30.24 in1024.0 mb 0.00 in0.0 mm 0.00 in0.0 mm 0.00 in0.0 mm
09:56 AM 51.8°F11.0°C 33.3°F0.7°C 49% 3.0 mph SW4.8 kmh SW 5.0 mph8.0 kmh 30.24 in1024.0 mb 0.00 in0.0 mm 0.00 in0.0 mm 0.00 in0.0 mm
09:58 AM 51.7°F10.9°C 33.7°F0.9°C 50% 1.0 mph S1.6 kmh S 5.0 mph8.0 kmh 30.24 in1024.0 mb 0.00 in0.0 mm 0.00 in0.0 mm 0.00 in0.0 mm
10:00 AM 51.9°F11.1°C 33.9°F1.1°C 50% 3.0 mph SSW4.8 kmh SSW 5.0 mph8.0 kmh 30.24 in1024.0 mb 0.00 in0.0 mm 0.00 in0.0 mm 0.00 in0.0 mm
10:02 AM 51.9°F11.1°C 33.4°F0.8°C 49% 2.0 mph SSW3.2 kmh SSW 3.0 mph4.8 kmh 30.24 in1024.0 mb 0.00 in0.0 mm 0.00 in0.0 mm 0.00 in0.0 mm
10:04 AM 52.0°F11.1°C 34.0°F1.1°C 50% 4.0 mph SSW6.4 kmh SSW 4.0 mph6.4 kmh 30.24 in1024.0 mb 0.00 in0.0 mm 0.00 in0.0 mm 0.00 in0.0 mm
10:06 AM 52.2°F11.2°C 34.6°F1.4°C 51% 3.0 mph SW4.8 kmh SW 5.0 mph8.0 kmh 30.24 in1024.0 mb 0.00 in0.0 mm 0.00 in0.0 mm 0.00 in0.0 mm
10:08 AM 52.4°F11.3°C 33.8°F1.0°C 49% 3.0 mph SSW4.8 kmh SSW 5.0 mph8.0 kmh 30.24 in1024.0 mb 0.00 in0.0 mm 0.00 in0.0 mm 0.00 in0.0 mm
10:10 AM 52.6°F11.4°C 34.0°F1.1°C 49% 4.0 mph SSE6.4 kmh SSE 8.0 mph12.9 kmh 30.23 in1023.7 mb 0.00 in0.0 mm 0.00 in0.0 mm 0.00 in0.0 mm
10:12 AM 52.7°F11.5°C 34.1°F1.2°C 49% 4.0 mph SW6.4 kmh SW 8.0 mph12.9 kmh 30.24 in1024.0 mb 0.00 in0.0 mm 0.00 in0.0 mm 0.00 in0.0 mm
10:14 AM 52.7°F11.5°C 34.1°F1.2°C 49% 1.0 mph S1.6 kmh S 8.0 mph12.9 kmh 30.24 in1024.0 mb 0.00 in0.0 mm 0.00 in0.0 mm 0.00 in0.0 mm
10:16 AM 52.9°F11.6°C 34.8°F1.6°C 50% 3.0 mph SSW4.8 kmh SSW 8.0 mph12.9 kmh 30.24 in1024.0 mb 0.00 in0.0 mm 0.00 in0.0 mm 0.00 in0.0 mm
10:18 AM 53.0°F11.7°C 33.3°F0.7°C 47% 5.0 mph S8.0 kmh S 8.0 mph12.9 kmh 30.23 in1023.7 mb 0.00 in0.0 mm 0.00 in0.0 mm 0.00 in0.0 mm
10:20 AM 53.0°F11.7°C 33.3°F0.7°C 47% 4.0 mph SW6.4 kmh SW 8.0 mph12.9 kmh 30.23 in1023.7 mb 0.00 in0.0 mm 0.00 in0.0 mm 0.00 in0.0 mm
10:22 AM 52.9°F11.6°C 33.2°F0.7°C 47% 4.0 mph S6.4 kmh S 8.0 mph12.9 kmh 30.23 in1023.7 mb 0.00 in0.0 mm 0.00 in0.0 mm 0.00 in0.0 mm
10:24 AM 52.9°F11.6°C 33.2°F0.7°C 47% 2.0 mph S3.2 kmh S 8.0 mph12.9 kmh 30.23 in1023.7 mb 0.00 in0.0 mm 0.00 in0.0 mm 0.00 in0.0 mm
10:26 AM 52.9°F11.6°C 33.8°F1.0°C 48% 6.0 mph SW9.7 kmh SW 8.0 mph12.9 kmh 30.23 in1023.7 mb 0.00 in0.0 mm 0.00 in0.0 mm 0.00 in0.0 mm
10:28 AM 52.9°F11.6°C 33.2°F0.7°C 47% 3.0 mph S4.8 kmh S 8.0 mph12.9 kmh 30.23 in1023.7 mb 0.00 in0.0 mm 0.00 in0.0 mm 0.00 in0.0 mm
10:30 AM 53.0°F11.7°C 33.3°F0.7°C 47% 1.0 mph S1.6 kmh S 8.0 mph12.9 kmh 30.23 in1023.7 mb 0.00 in0.0 mm 0.00 in0.0 mm 0.00 in0.0 mm
10:32 AM 53.1°F11.7°C 34.0°F1.1°C 48% 5.0 mph S8.0 kmh S 5.0 mph8.0 kmh 30.23 in1023.7 mb 0.00 in0.0 mm 0.00 in0.0 mm 0.00 in0.0 mm
10:34 AM 53.4°F11.9°C 33.7°F0.9°C 47% 4.0 mph SSW6.4 kmh SSW 7.0 mph11.3 kmh 30.22 in1023.4 mb 0.00 in0.0 mm 0.00 in0.0 mm 0.00 in0.0 mm
10:36 AM 53.5°F11.9°C 34.3°F1.3°C 48% 5.0 mph SE8.0 kmh SE 10.0 mph16.1 kmh 30.23 in1023.7 mb 0.00 in0.0 mm 0.00 in0.0 mm 0.00 in0.0 mm
10:38 AM 53.9°F12.2°C 33.6°F0.9°C 46% 5.0 mph SE8.0 kmh SE 10.0 mph16.1 kmh 30.22 in1023.4 mb 0.00 in0.0 mm 0.00 in0.0 mm 0.00 in0.0 mm
10:40 AM 54.3°F12.4°C 33.4°F0.8°C 45% 3.0 mph SSE4.8 kmh SSE 10.0 mph16.1 kmh 30.22 in1023.4 mb 0.00 in0.0 mm 0.00 in0.0 mm 0.00 in0.0 mm
10:42 AM 54.3°F12.4°C 33.4°F0.8°C 45% 3.0 mph S4.8 kmh S 10.0 mph16.1 kmh 30.22 in1023.4 mb 0.00 in0.0 mm 0.00 in0.0 mm 0.00 in0.0 mm
10:44 AM 54.2°F12.3°C 32.8°F0.4°C 44% 1.0 mph S1.6 kmh S 10.0 mph16.1 kmh 30.22 in1023.4 mb 0.00 in0.0 mm 0.00 in0.0 mm 0.00 in0.0 mm
10:46 AM 54.3°F12.4°C 33.4°F0.8°C 45% 3.0 mph S4.8 kmh S 10.0 mph16.1 kmh 30.22 in1023.4 mb 0.00 in0.0 mm 0.00 in0.0 mm 0.00 in0.0 mm
10:48 AM 54.5°F12.5°C 33.1°F0.6°C 44% Calm Calm 10.0 mph16.1 kmh 30.22 in1023.4 mb 0.00 in0.0 mm 0.00 in0.0 mm 0.00 in0.0 mm
10:50 AM 54.7°F12.6°C 32.7°F0.4°C 43% 5.0 mph SW8.0 kmh SW 10.0 mph16.1 kmh 30.22 in1023.4 mb 0.00 in0.0 mm 0.00 in0.0 mm 0.00 in0.0 mm
10:52 AM 54.9°F12.7°C 34.0°F1.1°C 45% 3.0 mph SW4.8 kmh SW 10.0 mph16.1 kmh 30.22 in1023.4 mb 0.00 in0.0 mm 0.00 in0.0 mm 0.00 in0.0 mm
10:54 AM 55.3°F12.9°C 33.8°F1.0°C 44% 2.0 mph SE3.2 kmh SE 10.0 mph16.1 kmh 30.22 in1023.4 mb 0.00 in0.0 mm 0.00 in0.0 mm 0.00 in0.0 mm
10:56 AM 55.7°F13.2°C 34.1°F1.2°C 44% 6.0 mph S9.7 kmh S 10.0 mph16.1 kmh 30.22 in1023.4 mb 0.00 in0.0 mm 0.00 in0.0 mm 0.00 in0.0 mm
10:58 AM 55.5°F13.1°C 32.8°F0.4°C 42% 2.0 mph SW3.2 kmh SW 10.0 mph16.1 kmh 30.22 in1023.4 mb 0.00 in0.0 mm 0.00 in0.0 mm 0.00 in0.0 mm
11:00 AM 55.5°F13.1°C 32.2°F0.1°C 41% 9.0 mph SSW14.5 kmh SSW 10.0 mph16.1 kmh 30.22 in1023.4 mb 0.00 in0.0 mm 0.00 in0.0 mm 0.00 in0.0 mm
11:02 AM 55.3°F12.9°C 32.0°F0.0°C 41% 6.0 mph W9.7 kmh W 8.0 mph12.9 kmh 30.22 in1023.4 mb 0.00 in0.0 mm 0.00 in0.0 mm 0.00 in0.0 mm
11:04 AM 55.1°F12.8°C 31.2°F-0.4°C 40% 4.0 mph S6.4 kmh S 8.0 mph12.9 kmh 30.22 in1023.4 mb 0.00 in0.0 mm 0.00 in0.0 mm 0.00 in0.0 mm
11:06 AM 55.1°F12.8°C 31.2°F-0.4°C 40% 3.0 mph S4.8 kmh S 8.0 mph12.9 kmh 30.22 in1023.4 mb 0.00 in0.0 mm 0.00 in0.0 mm 0.00 in0.0 mm
11:08 AM 54.9°F12.7°C 31.1°F-0.5°C 40% 1.0 mph SW1.6 kmh SW 8.0 mph12.9 kmh 30.22 in1023.4 mb 0.00 in0.0 mm 0.00 in0.0 mm 0.00 in0.0 mm
11:10 AM 54.9°F12.7°C 31.1°F-0.5°C 40% 7.0 mph W11.3 kmh W 8.0 mph12.9 kmh 30.21 in1023.0 mb 0.00 in0.0 mm 0.00 in0.0 mm 0.00 in0.0 mm
11:12 AM 55.0°F12.8°C 31.1°F-0.5°C 40% 6.0 mph W9.7 kmh W 8.0 mph12.9 kmh 30.22 in1023.4 mb 0.00 in0.0 mm 0.00 in0.0 mm 0.00 in0.0 mm
11:14 AM 55.4°F13.0°C 31.5°F-0.3°C 40% 2.0 mph S3.2 kmh S 8.0 mph12.9 kmh 30.22 in1023.4 mb 0.00 in0.0 mm 0.00 in0.0 mm 0.00 in0.0 mm
11:16 AM 55.5°F13.1°C 31.6°F-0.2°C 40% 4.0 mph S6.4 kmh S 8.0 mph12.9 kmh 30.21 in1023.0 mb 0.00 in0.0 mm 0.00 in0.0 mm 0.00 in0.0 mm
11:18 AM 55.8°F13.2°C 31.9°F-0.1°C 40% 2.0 mph S3.2 kmh S 8.0 mph12.9 kmh 30.21 in1023.0 mb 0.00 in0.0 mm 0.00 in0.0 mm 0.00 in0.0 mm
11:20 AM 56.0°F13.3°C 32.7°F0.4°C 41% 8.0 mph SW12.9 kmh SW 8.0 mph12.9 kmh 30.21 in1023.0 mb 0.00 in0.0 mm 0.00 in0.0 mm 0.00 in0.0 mm
11:22 AM 56.0°F13.3°C 31.4°F-0.3°C 39% 3.0 mph SW4.8 kmh SW 9.0 mph14.5 kmh 30.21 in1023.0 mb 0.00 in0.0 mm 0.00 in0.0 mm 0.00 in0.0 mm
11:24 AM 55.8°F13.2°C 31.2°F-0.4°C 39% 2.0 mph S3.2 kmh S 9.0 mph14.5 kmh 30.21 in1023.0 mb 0.00 in0.0 mm 0.00 in0.0 mm 0.00 in0.0 mm
11:25 AM 55.7°F13.2°C 31.1°F-0.5°C 39% 2.0 mph SW3.2 kmh SW 9.0 mph14.5 kmh 30.21 in1023.0 mb 0.00 in0.0 mm 0.00 in0.0 mm 0.00 in0.0 mm
11:28 AM 55.7°F13.2°C 31.1°F-0.5°C 39% 2.0 mph SW3.2 kmh SW 9.0 mph14.5 kmh 30.21 in1023.0 mb 0.00 in0.0 mm 0.00 in0.0 mm 0.00 in0.0 mm
11:30 AM 55.9°F13.3°C 31.3°F-0.4°C 39% 2.0 mph SW3.2 kmh SW 9.0 mph14.5 kmh 30.21 in1023.0 mb 0.00 in0.0 mm 0.00 in0.0 mm 0.00 in0.0 mm
11:32 AM 55.8°F13.2°C 31.2°F-0.4°C 39% 1.0 mph SW1.6 kmh SW 3.0 mph4.8 kmh 30.21 in1023.0 mb 0.00 in0.0 mm 0.00 in0.0 mm 0.00 in0.0 mm
11:34 AM 55.9°F13.3°C 32.0°F0.0°C 40% 3.0 mph WSW4.8 kmh WSW 4.0 mph6.4 kmh 30.20 in1022.7 mb 0.00 in0.0 mm 0.00 in0.0 mm 0.00 in0.0 mm
11:36 AM 56.1°F13.4°C 32.1°F0.1°C 40% 7.0 mph SW11.3 kmh SW 9.0 mph14.5 kmh 30.20 in1022.7 mb 0.00 in0.0 mm 0.00 in0.0 mm 0.00 in0.0 mm
11:38 AM 56.0°F13.3°C 31.4°F-0.3°C 39% 6.0 mph SSW9.7 kmh SSW 11.0 mph17.7 kmh 30.20 in1022.7 mb 0.00 in0.0 mm 0.00 in0.0 mm 0.00 in0.0 mm
11:40 AM 55.9°F13.3°C 30.7°F-0.7°C 38% 5.0 mph SSW8.0 kmh SSW 11.0 mph17.7 kmh 30.20 in1022.7 mb 0.00 in0.0 mm 0.00 in0.0 mm 0.00 in0.0 mm
11:42 AM 55.9°F13.3°C 31.3°F-0.4°C 39% 1.0 mph S1.6 kmh S 11.0 mph17.7 kmh 30.20 in1022.7 mb 0.00 in0.0 mm 0.00 in0.0 mm 0.00 in0.0 mm
11:43 AM 56.2°F13.4°C 31.6°F-0.2°C 39% 2.0 mph NW3.2 kmh NW 11.0 mph17.7 kmh 30.20 in1022.7 mb 0.00 in0.0 mm 0.00 in0.0 mm 0.00 in0.0 mm
11:46 AM 56.3°F13.5°C 31.0°F-0.6°C 38% Calm Calm 11.0 mph17.7 kmh 30.20 in1022.7 mb 0.00 in0.0 mm 0.00 in0.0 mm 0.00 in0.0 mm
11:48 AM 56.7°F13.7°C 32.0°F0.0°C 39% 4.0 mph W6.4 kmh W 11.0 mph17.7 kmh 30.20 in1022.7 mb 0.00 in0.0 mm 0.00 in0.0 mm 0.00 in0.0 mm
11:50 AM 56.9°F13.8°C 31.6°F-0.2°C 38% 4.0 mph WSW6.4 kmh WSW 11.0 mph17.7 kmh 30.20 in1022.7 mb 0.00 in0.0 mm 0.00 in0.0 mm 0.00 in0.0 mm
11:52 AM 56.9°F13.8°C 30.9°F-0.6°C 37% 2.0 mph SW3.2 kmh SW 11.0 mph17.7 kmh 30.20 in1022.7 mb 0.00 in0.0 mm 0.00 in0.0 mm 0.00 in0.0 mm
11:54 AM 57.0°F13.9°C 32.3°F0.2°C 39% 5.0 mph S8.0 kmh S 11.0 mph17.7 kmh 30.20 in1022.7 mb 0.00 in0.0 mm 0.00 in0.0 mm 0.00 in0.0 mm
11:56 AM 57.3°F14.1°C 32.6°F0.3°C 39% 3.0 mph S4.8 kmh S 11.0 mph17.7 kmh 30.20 in1022.7 mb 0.00 in0.0 mm 0.00 in0.0 mm 0.00 in0.0 mm
11:58 AM 57.5°F14.2°C 32.1°F0.1°C 38% 7.0 mph W11.3 kmh W 11.0 mph17.7 kmh 30.19 in1022.4 mb 0.00 in0.0 mm 0.00 in0.0 mm 0.00 in0.0 mm
12:00 PM 57.4°F14.1°C 32.0°F0.0°C 38% 2.0 mph SW3.2 kmh SW 11.0 mph17.7 kmh 30.19 in1022.4 mb 0.00 in0.0 mm 0.00 in0.0 mm 0.00 in0.0 mm
12:02 PM 57.7°F14.3°C 32.9°F0.5°C 39% 1.0 mph W1.6 kmh W 4.0 mph6.4 kmh 30.19 in1022.4 mb 0.00 in0.0 mm 0.00 in0.0 mm 0.00 in0.0 mm
12:04 PM 57.8°F14.3°C 31.7°F-0.2°C 37% 4.0 mph NW6.4 kmh NW 7.0 mph11.3 kmh 30.19 in1022.4 mb 0.00 in0.0 mm 0.00 in0.0 mm 0.00 in0.0 mm
12:06 PM 57.7°F14.3°C 31.6°F-0.2°C 37% 7.0 mph W11.3 kmh W 9.0 mph14.5 kmh 30.19 in1022.4 mb 0.00 in0.0 mm 0.00 in0.0 mm 0.00 in0.0 mm
12:08 PM 57.4°F14.1°C 31.4°F-0.3°C 37% 8.0 mph NNW12.9 kmh NNW 11.0 mph17.7 kmh 30.19 in1022.4 mb 0.00 in0.0 mm 0.00 in0.0 mm 0.00 in0.0 mm
12:10 PM 57.4°F14.1°C 32.0°F0.0°C 38% 8.0 mph WSW12.9 kmh WSW 11.0 mph17.7 kmh 30.19 in1022.4 mb 0.00 in0.0 mm 0.00 in0.0 mm 0.00 in0.0 mm
12:11 PM 57.4°F14.1°C 30.7°F-0.7°C 36% 11.0 mph W17.7 kmh W 12.0 mph19.3 kmh 30.19 in1022.4 mb 0.00 in0.0 mm 0.00 in0.0 mm 0.00 in0.0 mm
12:14 PM 57.3°F14.1°C 31.3°F-0.4°C 37% 11.0 mph WSW17.7 kmh WSW 12.0 mph19.3 kmh 30.18 in1022.0 mb 0.00 in0.0 mm 0.00 in0.0 mm 0.00 in0.0 mm
12:16 PM 57.1°F13.9°C 30.4°F-0.9°C 36% 8.0 mph WNW12.9 kmh WNW 12.0 mph19.3 kmh 30.19 in1022.4 mb 0.00 in0.0 mm 0.00 in0.0 mm 0.00 in0.0 mm
12:18 PM 57.2°F14.0°C 30.5°F-0.8°C 36% 7.0 mph WSW11.3 kmh WSW 12.0 mph19.3 kmh 30.19 in1022.4 mb 0.00 in0.0 mm 0.00 in0.0 mm 0.00 in0.0 mm
12:20 PM 57.1°F13.9°C 29.7°F-1.3°C 35% 5.0 mph NW8.0 kmh NW 12.0 mph19.3 kmh 30.18 in1022.0 mb 0.00 in0.0 mm 0.00 in0.0 mm 0.00 in0.0 mm
12:22 PM 57.0°F13.9°C 30.3°F-0.9°C 36% 10.0 mph WSW16.1 kmh WSW 12.0 mph19.3 kmh 30.18 in1022.0 mb 0.00 in0.0 mm 0.00 in0.0 mm 0.00 in0.0 mm
12:24 PM 56.8°F13.8°C 30.2°F-1.0°C 36% 7.0 mph WSW11.3 kmh WSW 12.0 mph19.3 kmh 30.18 in1022.0 mb 0.00 in0.0 mm 0.00 in0.0 mm 0.00 in0.0 mm
12:26 PM 56.8°F13.8°C 30.8°F-0.7°C 37% 8.0 mph WSW12.9 kmh WSW 12.0 mph19.3 kmh 30.18 in1022.0 mb 0.00 in0.0 mm 0.00 in0.0 mm 0.00 in0.0 mm
12:28 PM 56.8°F13.8°C 30.2°F-1.0°C 36% 5.0 mph WNW8.0 kmh WNW 12.0 mph19.3 kmh 30.18 in1022.0 mb 0.00 in0.0 mm 0.00 in0.0 mm 0.00 in0.0 mm
12:30 PM 56.7°F13.7°C 30.1°F-1.1°C 36% 5.0 mph WNW8.0 kmh WNW 12.0 mph19.3 kmh 30.18 in1022.0 mb 0.00 in0.0 mm 0.00 in0.0 mm 0.00 in0.0 mm
12:32 PM 56.6°F13.7°C 30.0°F-1.1°C 36% 6.0 mph W9.7 kmh W 7.0 mph11.3 kmh 30.18 in1022.0 mb 0.00 in0.0 mm 0.00 in0.0 mm 0.00 in0.0 mm
12:34 PM 56.5°F13.6°C 29.2°F-1.6°C 35% 3.0 mph S4.8 kmh S 7.0 mph11.3 kmh 30.18 in1022.0 mb 0.00 in0.0 mm 0.00 in0.0 mm 0.00 in0.0 mm
12:36 PM 56.7°F13.7°C 30.1°F-1.1°C 36% 2.0 mph S3.2 kmh S 7.0 mph11.3 kmh 30.18 in1022.0 mb 0.00 in0.0 mm 0.00 in0.0 mm 0.00 in0.0 mm
12:38 PM 57.0°F13.9°C 30.3°F-0.9°C 36% 4.0 mph SW6.4 kmh SW 7.0 mph11.3 kmh 30.17 in1021.7 mb 0.00 in0.0 mm 0.00 in0.0 mm 0.00 in0.0 mm
12:40 PM 57.0°F13.9°C 29.6°F-1.3°C 35% 7.0 mph W11.3 kmh W 7.0 mph11.3 kmh 30.17 in1021.7 mb 0.00 in0.0 mm 0.00 in0.0 mm 0.00 in0.0 mm
12:42 PM 57.2°F14.0°C 31.2°F-0.4°C 37% 8.0 mph W12.9 kmh W 9.0 mph14.5 kmh 30.17 in1021.7 mb 0.00 in0.0 mm 0.00 in0.0 mm 0.00 in0.0 mm
12:44 PM 57.6°F14.2°C 30.9°F-0.6°C 36% 5.0 mph SW8.0 kmh SW 9.0 mph14.5 kmh 30.17 in1021.7 mb 0.00 in0.0 mm 0.00 in0.0 mm 0.00 in0.0 mm
12:46 PM 57.8°F14.3°C 30.4°F-0.9°C 35% 5.0 mph WNW8.0 kmh WNW 9.0 mph14.5 kmh 30.17 in1021.7 mb 0.00 in0.0 mm 0.00 in0.0 mm 0.00 in0.0 mm
12:48 PM 58.4°F14.7°C 31.6°F-0.2°C 36% 7.0 mph W11.3 kmh W 9.0 mph14.5 kmh 30.16 in1021.3 mb 0.00 in0.0 mm 0.00 in0.0 mm 0.00 in0.0 mm
12:50 PM 58.7°F14.8°C 31.1°F-0.5°C 35% 8.0 mph WSW12.9 kmh WSW 10.0 mph16.1 kmh 30.17 in1021.7 mb 0.00 in0.0 mm 0.00 in0.0 mm 0.00 in0.0 mm
12:52 PM 58.4°F14.7°C 30.9°F-0.6°C 35% 3.0 mph WNW4.8 kmh WNW 10.0 mph16.1 kmh 30.17 in1021.7 mb 0.00 in0.0 mm 0.00 in0.0 mm 0.00 in0.0 mm
12:54 PM 58.1°F14.5°C 31.3°F-0.4°C 36% 7.0 mph WNW11.3 kmh WNW 10.0 mph16.1 kmh 30.17 in1021.7 mb 0.00 in0.0 mm 0.00 in0.0 mm 0.00 in0.0 mm
12:56 PM 58.1°F14.5°C 31.3°F-0.4°C 36% 8.0 mph NW12.9 kmh NW 10.0 mph16.1 kmh 30.16 in1021.3 mb 0.00 in0.0 mm 0.00 in0.0 mm 0.00 in0.0 mm
12:58 PM 57.9°F14.4°C 30.4°F-0.9°C 35% 6.0 mph NW9.7 kmh NW 11.0 mph17.7 kmh 30.16 in1021.3 mb 0.00 in0.0 mm 0.00 in0.0 mm 0.00 in0.0 mm
01:00 PM 57.7°F14.3°C 31.0°F-0.6°C 36% 3.0 mph N4.8 kmh N 11.0 mph17.7 kmh 30.16 in1021.3 mb 0.00 in0.0 mm 0.00 in0.0 mm 0.00 in0.0 mm
01:02 PM 57.9°F14.4°C 31.8°F-0.1°C 37% 2.0 mph NW3.2 kmh NW 4.0 mph6.4 kmh 30.16 in1021.3 mb 0.00 in0.0 mm 0.00 in0.0 mm 0.00 in0.0 mm
01:04 PM 58.4°F14.7°C 30.9°F-0.6°C 35% 6.0 mph SW9.7 kmh SW 9.0 mph14.5 kmh 30.16 in1021.3 mb 0.00 in0.0 mm 0.00 in0.0 mm 0.00 in0.0 mm
01:06 PM 58.6°F14.8°C 30.3°F-0.9°C 34% 4.0 mph SW6.4 kmh SW 9.0 mph14.5 kmh 30.16 in1021.3 mb 0.00 in0.0 mm 0.00 in0.0 mm 0.00 in0.0 mm
01:08 PM 58.7°F14.8°C 30.4°F-0.9°C 34% 3.0 mph SW4.8 kmh SW 10.0 mph16.1 kmh 30.16 in1021.3 mb 0.00 in0.0 mm 0.00 in0.0 mm 0.00 in0.0 mm
01:10 PM 58.5°F14.7°C 29.5°F-1.4°C 33% 1.0 mph SW1.6 kmh SW 10.0 mph16.1 kmh 30.16 in1021.3 mb 0.00 in0.0 mm 0.00 in0.0 mm 0.00 in0.0 mm
01:12 PM 58.5°F14.7°C 29.5°F-1.4°C 33% 2.0 mph SSW3.2 kmh SSW 10.0 mph16.1 kmh 30.16 in1021.3 mb 0.00 in0.0 mm 0.00 in0.0 mm 0.00 in0.0 mm
01:14 PM 58.4°F14.7°C 29.4°F-1.4°C 33% Calm Calm 10.0 mph16.1 kmh 30.16 in1021.3 mb 0.00 in0.0 mm 0.00 in0.0 mm 0.00 in0.0 mm
01:16 PM 58.4°F14.7°C 29.4°F-1.4°C 33% 4.0 mph NW6.4 kmh NW 10.0 mph16.1 kmh 30.16 in1021.3 mb 0.00 in0.0 mm 0.00 in0.0 mm 0.00 in0.0 mm
01:18 PM 58.4°F14.7°C 30.2°F-1.0°C 34% 3.0 mph NE4.8 kmh NE 10.0 mph16.1 kmh 30.15 in1021.0 mb 0.00 in0.0 mm 0.00 in0.0 mm 0.00 in0.0 mm
01:20 PM 58.6°F14.8°C 31.1°F-0.5°C 35% 2.0 mph NE3.2 kmh NE 10.0 mph16.1 kmh 30.16 in1021.3 mb 0.00 in0.0 mm 0.00 in0.0 mm 0.00 in0.0 mm
01:22 PM 58.8°F14.9°C 30.5°F-0.8°C 34% 6.0 mph S9.7 kmh S 10.0 mph16.1 kmh 30.16 in1021.3 mb 0.00 in0.0 mm 0.00 in0.0 mm 0.00 in0.0 mm
01:24 PM 58.7°F14.8°C 29.7°F-1.3°C 33% 5.0 mph SW8.0 kmh SW 10.0 mph16.1 kmh 30.15 in1021.0 mb 0.00 in0.0 mm 0.00 in0.0 mm 0.00 in0.0 mm
01:26 PM 58.5°F14.7°C 29.5°F-1.4°C 33% 4.0 mph SW6.4 kmh SW 10.0 mph16.1 kmh 30.15 in1021.0 mb 0.00 in0.0 mm 0.00 in0.0 mm 0.00 in0.0 mm
01:28 PM 58.7°F14.8°C 30.4°F-0.9°C 34% 4.0 mph NW6.4 kmh NW 10.0 mph16.1 kmh 30.15 in1021.0 mb 0.00 in0.0 mm 0.00 in0.0 mm 0.00 in0.0 mm
01:30 PM 58.7°F14.8°C 29.7°F-1.3°C 33% 2.0 mph W3.2 kmh W 10.0 mph16.1 kmh 30.15 in1021.0 mb 0.00 in0.0 mm 0.00 in0.0 mm 0.00 in0.0 mm
01:32 PM 58.9°F14.9°C 30.6°F-0.8°C 34% 6.0 mph NW9.7 kmh NW 7.0 mph11.3 kmh 30.15 in1021.0 mb 0.00 in0.0 mm 0.00 in0.0 mm 0.00 in0.0 mm
01:34 PM 58.9°F14.9°C 29.9°F-1.2°C 33% 6.0 mph NNW9.7 kmh NNW 7.0 mph11.3 kmh 30.15 in1021.0 mb 0.00 in0.0 mm 0.00 in0.0 mm 0.00 in0.0 mm
01:36 PM 58.7°F14.8°C 29.7°F-1.3°C 33% 2.0 mph NW3.2 kmh NW 7.0 mph11.3 kmh 30.14 in1020.7 mb 0.00 in0.0 mm 0.00 in0.0 mm 0.00 in0.0 mm
01:38 PM 59.0°F15.0°C 31.4°F-0.3°C 35% 3.0 mph WSW4.8 kmh WSW 7.0 mph11.3 kmh 30.15 in1021.0 mb 0.00 in0.0 mm 0.00 in0.0 mm 0.00 in0.0 mm
01:40 PM 59.5°F15.3°C 31.1°F-0.5°C 34% 5.0 mph SW8.0 kmh SW 10.0 mph16.1 kmh 30.14 in1020.7 mb 0.00 in0.0 mm 0.00 in0.0 mm 0.00 in0.0 mm
01:42 PM 59.6°F15.3°C 30.5°F-0.8°C 33% 4.0 mph NW6.4 kmh NW 11.0 mph17.7 kmh 30.14 in1020.7 mb 0.00 in0.0 mm 0.00 in0.0 mm 0.00 in0.0 mm
01:44 PM 59.8°F15.4°C 29.1°F-1.6°C 31% 7.0 mph SW11.3 kmh SW 11.0 mph17.7 kmh 30.14 in1020.7 mb 0.00 in0.0 mm 0.00 in0.0 mm 0.00 in0.0 mm
01:46 PM 59.8°F15.4°C 30.7°F-0.7°C 33% 1.0 mph S1.6 kmh S 11.0 mph17.7 kmh 30.14 in1020.7 mb 0.00 in0.0 mm 0.00 in0.0 mm 0.00 in0.0 mm
01:48 PM 60.1°F15.6°C 30.9°F-0.6°C 33% 9.0 mph SSW14.5 kmh SSW 11.0 mph17.7 kmh 30.14 in1020.7 mb 0.00 in0.0 mm 0.00 in0.0 mm 0.00 in0.0 mm
01:50 PM 60.1°F15.6°C 30.2°F-1.0°C 32% 5.0 mph SW8.0 kmh SW 11.0 mph17.7 kmh 30.14 in1020.7 mb 0.00 in0.0 mm 0.00 in0.0 mm 0.00 in0.0 mm
01:52 PM 60.2°F15.7°C 30.3°F-0.9°C 32% 4.0 mph SW6.4 kmh SW 11.0 mph17.7 kmh 30.14 in1020.7 mb 0.00 in0.0 mm 0.00 in0.0 mm 0.00 in0.0 mm
01:53 PM 59.8°F15.4°C 29.1°F-1.6°C 31% 8.0 mph WNW12.9 kmh WNW 13.0 mph20.9 kmh 30.14 in1020.7 mb 0.00 in0.0 mm 0.00 in0.0 mm 0.00 in0.0 mm
01:56 PM 59.3°F15.2°C 28.7°F-1.8°C 31% 6.0 mph NW9.7 kmh NW 13.0 mph20.9 kmh 30.14 in1020.7 mb 0.00 in0.0 mm 0.00 in0.0 mm 0.00 in0.0 mm
01:58 PM 59.0°F15.0°C 29.2°F-1.6°C 32% 7.0 mph NW11.3 kmh NW 13.0 mph20.9 kmh 30.14 in1020.7 mb 0.00 in0.0 mm 0.00 in0.0 mm 0.00 in0.0 mm
02:00 PM 59.0°F15.0°C 29.2°F-1.6°C 32% 8.0 mph WNW12.9 kmh WNW 13.0 mph20.9 kmh 30.14 in1020.7 mb 0.00 in0.0 mm 0.00 in0.0 mm 0.00 in0.0 mm
02:02 PM 59.1°F15.1°C 29.3°F-1.5°C 32% 7.0 mph NW11.3 kmh NW 9.0 mph14.5 kmh 30.13 in1020.3 mb 0.00 in0.0 mm 0.00 in0.0 mm 0.00 in0.0 mm
02:04 PM 59.4°F15.2°C 29.6°F-1.3°C 32% 8.0 mph NW12.9 kmh NW 11.0 mph17.7 kmh 30.13 in1020.3 mb 0.00 in0.0 mm 0.00 in0.0 mm 0.00 in0.0 mm
02:06 PM 59.4°F15.2°C 28.8°F-1.8°C 31% 5.0 mph NW8.0 kmh NW 11.0 mph17.7 kmh 30.13 in1020.3 mb 0.00 in0.0 mm 0.00 in0.0 mm 0.00 in0.0 mm
02:08 PM 59.3°F15.2°C 27.9°F-2.3°C 30% 10.0 mph NW16.1 kmh NW 12.0 mph19.3 kmh 30.13 in1020.3 mb 0.00 in0.0 mm 0.00 in0.0 mm 0.00 in0.0 mm
02:09 PM 59.3°F15.2°C 29.5°F-1.4°C 32% 3.0 mph NW4.8 kmh NW 12.0 mph19.3 kmh 30.13 in1020.3 mb 0.00 in0.0 mm 0.00 in0.0 mm 0.00 in0.0 mm
02:12 PM 59.2°F15.1°C 28.6°F-1.9°C 31% 2.0 mph NNW3.2 kmh NNW 12.0 mph19.3 kmh 30.13 in1020.3 mb 0.00 in0.0 mm 0.00 in0.0 mm 0.00 in0.0 mm
02:14 PM 59.1°F15.1°C 29.3°F-1.5°C 32% 4.0 mph NNW6.4 kmh NNW 12.0 mph19.3 kmh 30.12 in1020.0 mb 0.00 in0.0 mm 0.00 in0.0 mm 0.00 in0.0 mm
02:16 PM 59.3°F15.2°C 29.5°F-1.4°C 32% 5.0 mph NW8.0 kmh NW 12.0 mph19.3 kmh 30.12 in1020.0 mb 0.00 in0.0 mm 0.00 in0.0 mm 0.00 in0.0 mm
02:18 PM 59.4°F15.2°C 30.3°F-0.9°C 33% 3.0 mph WSW4.8 kmh WSW 12.0 mph19.3 kmh 30.12 in1020.0 mb 0.00 in0.0 mm 0.00 in0.0 mm 0.00 in0.0 mm
02:20 PM 59.6°F15.3°C 29.7°F-1.3°C 32% 3.0 mph W4.8 kmh W 12.0 mph19.3 kmh 30.12 in1020.0 mb 0.00 in0.0 mm 0.00 in0.0 mm 0.00 in0.0 mm
02:22 PM 59.6°F15.3°C 29.7°F-1.3°C 32% 2.0 mph SW3.2 kmh SW 12.0 mph19.3 kmh 30.12 in1020.0 mb 0.00 in0.0 mm 0.00 in0.0 mm 0.00 in0.0 mm
02:24 PM 59.6°F15.3°C 29.7°F-1.3°C 32% 3.0 mph W4.8 kmh W 12.0 mph19.3 kmh 30.12 in1020.0 mb 0.00 in0.0 mm 0.00 in0.0 mm 0.00 in0.0 mm
02:26 PM 59.6°F15.3°C 29.7°F-1.3°C 32% 11.0 mph NW17.7 kmh NW 12.0 mph19.3 kmh 30.12 in1020.0 mb 0.00 in0.0 mm 0.00 in0.0 mm 0.00 in0.0 mm
02:28 PM 59.6°F15.3°C 29.7°F-1.3°C 32% 7.0 mph NW11.3 kmh NW 12.0 mph19.3 kmh 30.11 in1019.6 mb 0.00 in0.0 mm 0.00 in0.0 mm 0.00 in0.0 mm
02:30 PM 59.4°F15.2°C 29.6°F-1.3°C 32% 2.0 mph NW3.2 kmh NW 12.0 mph19.3 kmh 30.12 in1020.0 mb 0.00 in0.0 mm 0.00 in0.0 mm 0.00 in0.0 mm
02:32 PM 59.5°F15.3°C 29.6°F-1.3°C 32% 12.0 mph NNW19.3 kmh NNW 12.0 mph19.3 kmh 30.11 in1019.6 mb 0.00 in0.0 mm 0.00 in0.0 mm 0.00 in0.0 mm
02:34 PM 59.5°F15.3°C 30.4°F-0.9°C 33% 10.0 mph NW16.1 kmh NW 12.0 mph19.3 kmh 30.11 in1019.6 mb 0.00 in0.0 mm 0.00 in0.0 mm 0.00 in0.0 mm
02:36 PM 59.6°F15.3°C 29.7°F-1.3°C 32% 4.0 mph NW6.4 kmh NW 12.0 mph19.3 kmh 30.11 in1019.6 mb 0.00 in0.0 mm 0.00 in0.0 mm 0.00 in0.0 mm
02:38 PM 59.8°F15.4°C 30.7°F-0.7°C 33% 4.0 mph NNE6.4 kmh NNE 12.0 mph19.3 kmh 30.11 in1019.6 mb 0.00 in0.0 mm 0.00 in0.0 mm 0.00 in0.0 mm
02:40 PM 60.2°F15.7°C 31.0°F-0.6°C 33% 8.0 mph NNW12.9 kmh NNW 12.0 mph19.3 kmh 30.11 in1019.6 mb 0.00 in0.0 mm 0.00 in0.0 mm 0.00 in0.0 mm
02:42 PM 60.3°F15.7°C 30.3°F-0.9°C 32% 4.0 mph N6.4 kmh N 12.0 mph19.3 kmh 30.11 in1019.6 mb 0.00 in0.0 mm 0.00 in0.0 mm 0.00 in0.0 mm
02:44 PM 60.3°F15.7°C 30.3°F-0.9°C 32% 6.0 mph NW9.7 kmh NW 12.0 mph19.3 kmh 30.11 in1019.6 mb 0.00 in0.0 mm 0.00 in0.0 mm 0.00 in0.0 mm
02:46 PM 60.1°F15.6°C 30.2°F-1.0°C 32% 4.0 mph W6.4 kmh W 12.0 mph19.3 kmh 30.10 in1019.3 mb 0.00 in0.0 mm 0.00 in0.0 mm 0.00 in0.0 mm
02:48 PM 60.0°F15.6°C 30.1°F-1.1°C 32% 6.0 mph W9.7 kmh W 12.0 mph19.3 kmh 30.10 in1019.3 mb 0.00 in0.0 mm 0.00 in0.0 mm 0.00 in0.0 mm
02:50 PM 60.0°F15.6°C 30.1°F-1.1°C 32% 6.0 mph W9.7 kmh W 12.0 mph19.3 kmh 30.10 in1019.3 mb 0.00 in0.0 mm 0.00 in0.0 mm 0.00 in0.0 mm
02:52 PM 60.2°F15.7°C 30.3°F-0.9°C 32% 9.0 mph NW14.5 kmh NW 12.0 mph19.3 kmh 30.10 in1019.3 mb 0.00 in0.0 mm 0.00 in0.0 mm 0.00 in0.0 mm
02:54 PM 60.3°F15.7°C 30.3°F-0.9°C 32% 2.0 mph NNW3.2 kmh NNW 12.0 mph19.3 kmh 30.10 in1019.3 mb 0.00 in0.0 mm 0.00 in0.0 mm 0.00 in0.0 mm
02:56 PM 60.5°F15.8°C 30.5°F-0.8°C 32% 2.0 mph WSW3.2 kmh WSW 12.0 mph19.3 kmh 30.10 in1019.3 mb 0.00 in0.0 mm 0.00 in0.0 mm 0.00 in0.0 mm
02:58 PM 60.8°F16.0°C 30.8°F-0.7°C 32% 5.0 mph WSW8.0 kmh WSW 12.0 mph19.3 kmh 30.10 in1019.3 mb 0.00 in0.0 mm 0.00 in0.0 mm 0.00 in0.0 mm
03:00 PM 60.8°F16.0°C 30.0°F-1.1°C 31% 3.0 mph W4.8 kmh W 12.0 mph19.3 kmh 30.10 in1019.3 mb 0.00 in0.0 mm 0.00 in0.0 mm 0.00 in0.0 mm
03:02 PM 60.6°F15.9°C 29.8°F-1.2°C 31% 1.0 mph W1.6 kmh W 4.0 mph6.4 kmh 30.10 in1019.3 mb 0.00 in0.0 mm 0.00 in0.0 mm 0.00 in0.0 mm
03:04 PM 60.7°F15.9°C 30.7°F-0.7°C 32% Calm Calm 4.0 mph6.4 kmh 30.10 in1019.3 mb 0.00 in0.0 mm 0.00 in0.0 mm 0.00 in0.0 mm
03:06 PM 60.9°F16.1°C 30.9°F-0.6°C 32% Calm Calm 4.0 mph6.4 kmh 30.10 in1019.3 mb 0.00 in0.0 mm 0.00 in0.0 mm 0.00 in0.0 mm
03:08 PM 61.5°F16.4°C 31.4°F-0.3°C 32% 1.0 mph W1.6 kmh W 4.0 mph6.4 kmh 30.10 in1019.3 mb 0.00 in0.0 mm 0.00 in0.0 mm 0.00 in0.0 mm
03:10 PM 62.0°F16.7°C 31.0°F-0.6°C 31% 12.0 mph NW19.3 kmh NW 12.0 mph19.3 kmh 30.10 in1019.3 mb 0.00 in0.0 mm 0.00 in0.0 mm 0.00 in0.0 mm
03:12 PM 61.9°F16.6°C 31.0°F-0.6°C 31% 9.0 mph W14.5 kmh W 13.0 mph20.9 kmh 30.10 in1019.3 mb 0.00 in0.0 mm 0.00 in0.0 mm 0.00 in0.0 mm
03:14 PM 61.4°F16.3°C 29.7°F-1.3°C 30% 9.0 mph W14.5 kmh W 13.0 mph20.9 kmh 30.09 in1019.0 mb 0.00 in0.0 mm 0.00 in0.0 mm 0.00 in0.0 mm
03:16 PM 61.0°F16.1°C 29.4°F-1.4°C 30% 7.0 mph WSW11.3 kmh WSW 13.0 mph20.9 kmh 30.10 in1019.3 mb 0.00 in0.0 mm 0.00 in0.0 mm 0.00 in0.0 mm
03:18 PM 60.8°F16.0°C 30.0°F-1.1°C 31% 5.0 mph SW8.0 kmh SW 13.0 mph20.9 kmh 30.10 in1019.3 mb 0.00 in0.0 mm 0.00 in0.0 mm 0.00 in0.0 mm
03:20 PM 61.1°F16.2°C 31.0°F-0.6°C 32% 7.0 mph W11.3 kmh W 13.0 mph20.9 kmh 30.10 in1019.3 mb 0.00 in0.0 mm 0.00 in0.0 mm 0.00 in0.0 mm
03:22 PM 61.1°F16.2°C 29.5°F-1.4°C 30% 2.0 mph NNE3.2 kmh NNE 13.0 mph20.9 kmh 30.10 in1019.3 mb 0.00 in0.0 mm 0.00 in0.0 mm 0.00 in0.0 mm
03:24 PM 61.2°F16.2°C 30.4°F-0.9°C 31% 4.0 mph NNW6.4 kmh NNW 13.0 mph20.9 kmh 30.09 in1019.0 mb 0.00 in0.0 mm 0.00 in0.0 mm 0.00 in0.0 mm
03:26 PM 61.4°F16.3°C 30.5°F-0.8°C 31% 6.0 mph SW9.7 kmh SW 13.0 mph20.9 kmh 30.09 in1019.0 mb 0.00 in0.0 mm 0.00 in0.0 mm 0.00 in0.0 mm
03:28 PM 61.4°F16.3°C 30.5°F-0.8°C 31% 3.0 mph SW4.8 kmh SW 13.0 mph20.9 kmh 30.09 in1019.0 mb 0.00 in0.0 mm 0.00 in0.0 mm 0.00 in0.0 mm
03:30 PM 61.4°F16.3°C 30.5°F-0.8°C 31% 5.0 mph S8.0 kmh S 13.0 mph20.9 kmh 30.09 in1019.0 mb 0.00 in0.0 mm 0.00 in0.0 mm 0.00 in0.0 mm
03:32 PM 61.6°F16.4°C 30.7°F-0.7°C 31% 7.0 mph SW11.3 kmh SW 9.0 mph14.5 kmh 30.09 in1019.0 mb 0.00 in0.0 mm 0.00 in0.0 mm 0.00 in0.0 mm
03:34 PM 61.7°F16.5°C 30.8°F-0.7°C 31% 5.0 mph SW8.0 kmh SW 10.0 mph16.1 kmh 30.09 in1019.0 mb 0.00 in0.0 mm 0.00 in0.0 mm 0.00 in0.0 mm
03:36 PM 61.8°F16.6°C 30.1°F-1.1°C 30% 5.0 mph WSW8.0 kmh WSW 10.0 mph16.1 kmh 30.09 in1019.0 mb 0.00 in0.0 mm 0.00 in0.0 mm 0.00 in0.0 mm
03:38 PM 61.5°F16.4°C 29.8°F-1.2°C 30% 6.0 mph SW9.7 kmh SW 10.0 mph16.1 kmh 30.09 in1019.0 mb 0.00 in0.0 mm 0.00 in0.0 mm 0.00 in0.0 mm
03:40 PM 61.2°F16.2°C 30.4°F-0.9°C 31% 2.0 mph SSE3.2 kmh SSE 10.0 mph16.1 kmh 30.09 in1019.0 mb 0.00 in0.0 mm 0.00 in0.0 mm 0.00 in0.0 mm
03:42 PM 61.3°F16.3°C 31.2°F-0.4°C 32% 2.0 mph S3.2 kmh S 10.0 mph16.1 kmh 30.09 in1019.0 mb 0.00 in0.0 mm 0.00 in0.0 mm 0.00 in0.0 mm
03:44 PM 61.5°F16.4°C 30.6°F-0.8°C 31% 4.0 mph WSW6.4 kmh WSW 10.0 mph16.1 kmh 30.09 in1019.0 mb 0.00 in0.0 mm 0.00 in0.0 mm 0.00 in0.0 mm
03:46 PM 61.4°F16.3°C 30.5°F-0.8°C 31% 4.0 mph S6.4 kmh S 10.0 mph16.1 kmh 30.09 in1019.0 mb 0.00 in0.0 mm 0.00 in0.0 mm 0.00 in0.0 mm
03:48 PM 61.6°F16.4°C 30.7°F-0.7°C 31% 8.0 mph SW12.9 kmh SW 10.0 mph16.1 kmh 30.09 in1019.0 mb 0.00 in0.0 mm 0.00 in0.0 mm 0.00 in0.0 mm
03:50 PM 61.9°F16.6°C 31.7°F-0.2°C 32% 8.0 mph SW12.9 kmh SW 10.0 mph16.1 kmh 30.09 in1019.0 mb 0.00 in0.0 mm 0.00 in0.0 mm 0.00 in0.0 mm
03:52 PM 61.9°F16.6°C 31.0°F-0.6°C 31% 5.0 mph WNW8.0 kmh WNW 13.0 mph20.9 kmh 30.09 in1019.0 mb 0.00 in0.0 mm 0.00 in0.0 mm 0.00 in0.0 mm
03:54 PM 62.1°F16.7°C 31.1°F-0.5°C 31% 5.0 mph NW8.0 kmh NW 13.0 mph20.9 kmh 30.08 in1018.6 mb 0.00 in0.0 mm 0.00 in0.0 mm 0.00 in0.0 mm
03:56 PM 61.9°F16.6°C 31.0°F-0.6°C 31% 4.0 mph WSW6.4 kmh WSW 13.0 mph20.9 kmh 30.08 in1018.6 mb 0.00 in0.0 mm 0.00 in0.0 mm 0.00 in0.0 mm
03:58 PM 62.0°F16.7°C 31.0°F-0.6°C 31% 3.0 mph S4.8 kmh S 13.0 mph20.9 kmh 30.08 in1018.6 mb 0.00 in0.0 mm 0.00 in0.0 mm 0.00 in0.0 mm
04:00 PM 62.0°F16.7°C 30.2°F-1.0°C 30% 1.0 mph S1.6 kmh S 13.0 mph20.9 kmh 30.08 in1018.6 mb 0.00 in0.0 mm 0.00 in0.0 mm 0.00 in0.0 mm
04:02 PM 62.0°F16.7°C 31.0°F-0.6°C 31% 1.0 mph S1.6 kmh S 3.0 mph4.8 kmh 30.08 in1018.6 mb 0.00 in0.0 mm 0.00 in0.0 mm 0.00 in0.0 mm
04:04 PM 62.1°F16.7°C 30.3°F-0.9°C 30% 2.0 mph S3.2 kmh S 3.0 mph4.8 kmh 30.08 in1018.6 mb 0.00 in0.0 mm 0.00 in0.0 mm 0.00 in0.0 mm
04:06 PM 62.2°F16.8°C 30.4°F-0.9°C 30% Calm Calm 3.0 mph4.8 kmh 30.08 in1018.6 mb 0.00 in0.0 mm 0.00 in0.0 mm 0.00 in0.0 mm
04:08 PM 62.5°F16.9°C 31.5°F-0.3°C 31% 3.0 mph N4.8 kmh N 4.0 mph6.4 kmh 30.08 in1018.6 mb 0.00 in0.0 mm 0.00 in0.0 mm 0.00 in0.0 mm
04:10 PM 62.9°F17.2°C 31.0°F-0.6°C 30% 3.0 mph NE4.8 kmh NE 6.0 mph9.7 kmh 30.08 in1018.6 mb 0.00 in0.0 mm 0.00 in0.0 mm 0.00 in0.0 mm
04:12 PM 62.9°F17.2°C 31.0°F-0.6°C 30% 4.0 mph NE6.4 kmh NE 6.0 mph9.7 kmh 30.08 in1018.6 mb 0.00 in0.0 mm 0.00 in0.0 mm 0.00 in0.0 mm
04:14 PM 62.8°F17.1°C 30.9°F-0.6°C 30% 1.0 mph NW1.6 kmh NW 6.0 mph9.7 kmh 30.08 in1018.6 mb 0.00 in0.0 mm 0.00 in0.0 mm 0.00 in0.0 mm
04:16 PM 62.7°F17.1°C 30.8°F-0.7°C 30% 6.0 mph W9.7 kmh W 7.0 mph11.3 kmh 30.08 in1018.6 mb 0.00 in0.0 mm 0.00 in0.0 mm 0.00 in0.0 mm
04:17 PM 62.4°F16.9°C 31.4°F-0.3°C 31% 4.0 mph NW6.4 kmh NW 8.0 mph12.9 kmh 30.08 in1018.6 mb 0.00 in0.0 mm 0.00 in0.0 mm 0.00 in0.0 mm
04:20 PM 62.3°F16.8°C 31.3°F-0.4°C 31% 8.0 mph W12.9 kmh W 9.0 mph14.5 kmh 30.08 in1018.6 mb 0.00 in0.0 mm 0.00 in0.0 mm 0.00 in0.0 mm
04:22 PM 62.3°F16.8°C 31.3°F-0.4°C 31% 2.0 mph NW3.2 kmh NW 9.0 mph14.5 kmh 30.08 in1018.6 mb 0.00 in0.0 mm 0.00 in0.0 mm 0.00 in0.0 mm
04:24 PM 62.3°F16.8°C 30.5°F-0.8°C 30% 2.0 mph SW3.2 kmh SW 9.0 mph14.5 kmh 30.08 in1018.6 mb 0.00 in0.0 mm 0.00 in0.0 mm 0.00 in0.0 mm
04:26 PM 62.3°F16.8°C 30.5°F-0.8°C 30% 1.0 mph WSW1.6 kmh WSW 9.0 mph14.5 kmh 30.08 in1018.6 mb 0.00 in0.0 mm 0.00 in0.0 mm 0.00 in0.0 mm
04:28 PM 62.4°F16.9°C 30.6°F-0.8°C 30% 3.0 mph W4.8 kmh W 9.0 mph14.5 kmh 30.08 in1018.6 mb 0.00 in0.0 mm 0.00 in0.0 mm 0.00 in0.0 mm
04:30 PM 62.5°F16.9°C 31.5°F-0.3°C 31% 3.0 mph S4.8 kmh S 9.0 mph14.5 kmh 30.08 in1018.6 mb 0.00 in0.0 mm 0.00 in0.0 mm 0.00 in0.0 mm
04:32 PM 62.5°F16.9°C 30.7°F-0.7°C 30% Calm Calm 5.0 mph8.0 kmh 30.07 in1018.3 mb 0.00 in0.0 mm 0.00 in0.0 mm 0.00 in0.0 mm
04:34 PM 62.9°F17.2°C 31.0°F-0.6°C 30% 3.0 mph WNW4.8 kmh WNW 5.0 mph8.0 kmh 30.08 in1018.6 mb 0.00 in0.0 mm 0.00 in0.0 mm 0.00 in0.0 mm
04:36 PM 62.9°F17.2°C 30.2°F-1.0°C 29% 4.0 mph WNW6.4 kmh WNW 12.0 mph19.3 kmh 30.08 in1018.6 mb 0.00 in0.0 mm 0.00 in0.0 mm 0.00 in0.0 mm
04:38 PM 62.8°F17.1°C 30.9°F-0.6°C 30% 4.0 mph W6.4 kmh W 12.0 mph19.3 kmh 30.08 in1018.6 mb 0.00 in0.0 mm 0.00 in0.0 mm 0.00 in0.0 mm
04:40 PM 62.7°F17.1°C 31.7°F-0.2°C 31% 2.0 mph W3.2 kmh W 12.0 mph19.3 kmh 30.08 in1018.6 mb 0.00 in0.0 mm 0.00 in0.0 mm 0.00 in0.0 mm
04:41 PM 63.1°F17.3°C 32.0°F0.0°C 31% 2.0 mph W3.2 kmh W 12.0 mph19.3 kmh 30.08 in1018.6 mb 0.00 in0.0 mm 0.00 in0.0 mm 0.00 in0.0 mm
04:44 PM 63.2°F17.3°C 31.3°F-0.4°C 30% 4.0 mph W6.4 kmh W 12.0 mph19.3 kmh 30.07 in1018.3 mb 0.00 in0.0 mm 0.00 in0.0 mm 0.00 in0.0 mm
04:46 PM 63.2°F17.3°C 30.4°F-0.9°C 29% 1.0 mph NNW1.6 kmh NNW 12.0 mph19.3 kmh 30.07 in1018.3 mb 0.00 in0.0 mm 0.00 in0.0 mm 0.00 in0.0 mm
04:48 PM 63.3°F17.4°C 30.5°F-0.8°C 29% 5.0 mph NW8.0 kmh NW 12.0 mph19.3 kmh 30.07 in1018.3 mb 0.00 in0.0 mm 0.00 in0.0 mm 0.00 in0.0 mm
04:50 PM 63.1°F17.3°C 30.4°F-0.9°C 29% 2.0 mph NW3.2 kmh NW 12.0 mph19.3 kmh 30.07 in1018.3 mb 0.00 in0.0 mm 0.00 in0.0 mm 0.00 in0.0 mm
04:52 PM 63.1°F17.3°C 30.4°F-0.9°C 29% Calm Calm 12.0 mph19.3 kmh 30.07 in1018.3 mb 0.00 in0.0 mm 0.00 in0.0 mm 0.00 in0.0 mm
04:53 PM 63.3°F17.4°C 30.5°F-0.8°C 29% 4.0 mph NW6.4 kmh NW 12.0 mph19.3 kmh 30.07 in1018.3 mb 0.00 in0.0 mm 0.00 in0.0 mm 0.00 in0.0 mm
04:56 PM 63.1°F17.3°C 30.4°F-0.9°C 29% 4.0 mph NW6.4 kmh NW 12.0 mph19.3 kmh 30.07 in1018.3 mb 0.00 in0.0 mm 0.00 in0.0 mm 0.00 in0.0 mm
04:58 PM 62.7°F17.1°C 30.0°F-1.1°C 29% 4.0 mph NW6.4 kmh NW 12.0 mph19.3 kmh 30.07 in1018.3 mb 0.00 in0.0 mm 0.00 in0.0 mm 0.00 in0.0 mm
05:00 PM 62.5°F16.9°C 29.8°F-1.2°C 29% 4.0 mph NW6.4 kmh NW 12.0 mph19.3 kmh 30.07 in1018.3 mb 0.00 in0.0 mm 0.00 in0.0 mm 0.00 in0.0 mm
05:02 PM 62.3°F16.8°C 30.5°F-0.8°C 30% 3.0 mph NW4.8 kmh NW 6.0 mph9.7 kmh 30.07 in1018.3 mb 0.00 in0.0 mm 0.00 in0.0 mm 0.00 in0.0 mm
05:04 PM 62.4°F16.9°C 30.6°F-0.8°C 30% 3.0 mph NW4.8 kmh NW 6.0 mph9.7 kmh 30.07 in1018.3 mb 0.00 in0.0 mm 0.00 in0.0 mm 0.00 in0.0 mm
05:05 PM 62.4°F16.9°C 30.6°F-0.8°C 30% 2.0 mph NNW3.2 kmh NNW 6.0 mph9.7 kmh 30.07 in1018.3 mb 0.00 in0.0 mm 0.00 in0.0 mm 0.00 in0.0 mm
05:08 PM 62.5°F16.9°C 30.7°F-0.7°C 30% 4.0 mph NNW6.4 kmh NNW 6.0 mph9.7 kmh 30.07 in1018.3 mb 0.00 in0.0 mm 0.00 in0.0 mm 0.00 in0.0 mm
05:10 PM 62.8°F17.1°C 30.9°F-0.6°C 30% 5.0 mph NW8.0 kmh NW 8.0 mph12.9 kmh 30.07 in1018.3 mb 0.00 in0.0 mm 0.00 in0.0 mm 0.00 in0.0 mm
05:12 PM 62.9°F17.2°C 31.0°F-0.6°C 30% 4.0 mph W6.4 kmh W 8.0 mph12.9 kmh 30.07 in1018.3 mb 0.00 in0.0 mm 0.00 in0.0 mm 0.00 in0.0 mm
05:14 PM 62.8°F17.1°C 30.9°F-0.6°C 30% 5.0 mph SW8.0 kmh SW 8.0 mph12.9 kmh 30.07 in1018.3 mb 0.00 in0.0 mm 0.00 in0.0 mm 0.00 in0.0 mm
05:16 PM 62.5°F16.9°C 30.7°F-0.7°C 30% 4.0 mph WSW6.4 kmh WSW 8.0 mph12.9 kmh 30.07 in1018.3 mb 0.00 in0.0 mm 0.00 in0.0 mm 0.00 in0.0 mm
05:18 PM 62.2°F16.8°C 30.4°F-0.9°C 30% 4.0 mph SW6.4 kmh SW 9.0 mph14.5 kmh 30.07 in1018.3 mb 0.00 in0.0 mm 0.00 in0.0 mm 0.00 in0.0 mm
05:20 PM 62.2°F16.8°C 31.2°F-0.4°C 31% 5.0 mph SW8.0 kmh SW 9.0 mph14.5 kmh 30.07 in1018.3 mb 0.00 in0.0 mm 0.00 in0.0 mm 0.00 in0.0 mm
05:22 PM 62.2°F16.8°C 30.4°F-0.9°C 30% 4.0 mph SW6.4 kmh SW 9.0 mph14.5 kmh 30.07 in1018.3 mb 0.00 in0.0 mm 0.00 in0.0 mm 0.00 in0.0 mm
05:24 PM 62.2°F16.8°C 30.4°F-0.9°C 30% 3.0 mph S4.8 kmh S 9.0 mph14.5 kmh 30.07 in1018.3 mb 0.00 in0.0 mm 0.00 in0.0 mm 0.00 in0.0 mm
05:26 PM 62.3°F16.8°C 30.5°F-0.8°C 30% Calm Calm 9.0 mph14.5 kmh 30.07 in1018.3 mb 0.00 in0.0 mm 0.00 in0.0 mm 0.00 in0.0 mm
05:28 PM 62.4°F16.9°C 31.4°F-0.3°C 31% Calm Calm 9.0 mph14.5 kmh 30.07 in1018.3 mb 0.00 in0.0 mm 0.00 in0.0 mm 0.00 in0.0 mm
05:30 PM 62.5°F16.9°C 30.7°F-0.7°C 30% 1.0 mph S1.6 kmh S 9.0 mph14.5 kmh 30.07 in1018.3 mb 0.00 in0.0 mm 0.00 in0.0 mm 0.00 in0.0 mm
05:32 PM 62.9°F17.2°C 31.0°F-0.6°C 30% 2.0 mph S3.2 kmh S 3.0 mph4.8 kmh 30.07 in1018.3 mb 0.00 in0.0 mm 0.00 in0.0 mm 0.00 in0.0 mm
05:34 PM 63.1°F17.3°C 31.2°F-0.4°C 30% 2.0 mph SW3.2 kmh SW 4.0 mph6.4 kmh 30.07 in1018.3 mb 0.00 in0.0 mm 0.00 in0.0 mm 0.00 in0.0 mm
05:36 PM 63.1°F17.3°C 31.2°F-0.4°C 30% Calm Calm 6.0 mph9.7 kmh 30.07 in1018.3 mb 0.00 in0.0 mm 0.00 in0.0 mm 0.00 in0.0 mm
05:38 PM 63.1°F17.3°C 31.2°F-0.4°C 30% 3.0 mph W4.8 kmh W 6.0 mph9.7 kmh 30.07 in1018.3 mb 0.00 in0.0 mm 0.00 in0.0 mm 0.00 in0.0 mm
05:40 PM 63.1°F17.3°C 31.2°F-0.4°C 30% 2.0 mph WSW3.2 kmh WSW 6.0 mph9.7 kmh 30.07 in1018.3 mb 0.00 in0.0 mm 0.00 in0.0 mm 0.00 in0.0 mm
05:42 PM 63.1°F17.3°C 31.2°F-0.4°C 30% 4.0 mph S6.4 kmh S 6.0 mph9.7 kmh 30.07 in1018.3 mb 0.00 in0.0 mm 0.00 in0.0 mm 0.00 in0.0 mm
05:44 PM 62.9°F17.2°C 31.0°F-0.6°C 30% 1.0 mph S1.6 kmh S 7.0 mph11.3 kmh 30.07 in1018.3 mb 0.00 in0.0 mm 0.00 in0.0 mm 0.00 in0.0 mm
05:46 PM 62.7°F17.1°C 30.8°F-0.7°C 30% 3.0 mph S4.8 kmh S 7.0 mph11.3 kmh 30.07 in1018.3 mb 0.00 in0.0 mm 0.00 in0.0 mm 0.00 in0.0 mm
05:48 PM 62.6°F17.0°C 30.8°F-0.7°C 30% 2.0 mph S3.2 kmh S 7.0 mph11.3 kmh 30.07 in1018.3 mb 0.00 in0.0 mm 0.00 in0.0 mm 0.00 in0.0 mm
05:50 PM 62.7°F17.1°C 31.7°F-0.2°C 31% 2.0 mph S3.2 kmh S 7.0 mph11.3 kmh 30.07 in1018.3 mb 0.00 in0.0 mm 0.00 in0.0 mm 0.00 in0.0 mm
05:52 PM 62.7°F17.1°C 31.7°F-0.2°C 31% 4.0 mph NW6.4 kmh NW 7.0 mph11.3 kmh 30.08 in1018.6 mb 0.00 in0.0 mm 0.00 in0.0 mm 0.00 in0.0 mm
05:55 PM 62.6°F17.0°C 30.8°F-0.7°C 30% 3.0 mph NW4.8 kmh NW 7.0 mph11.3 kmh 30.07 in1018.3 mb 0.00 in0.0 mm 0.00 in0.0 mm 0.00 in0.0 mm
05:56 PM 62.6°F17.0°C 30.8°F-0.7°C 30% 1.0 mph NW1.6 kmh NW 7.0 mph11.3 kmh 30.07 in1018.3 mb 0.00 in0.0 mm 0.00 in0.0 mm 0.00 in0.0 mm
05:58 PM 62.6°F17.0°C 30.8°F-0.7°C 30% 5.0 mph NW8.0 kmh NW 7.0 mph11.3 kmh 30.07 in1018.3 mb 0.00 in0.0 mm 0.00 in0.0 mm 0.00 in0.0 mm
06:00 PM 62.5°F16.9°C 30.7°F-0.7°C 30% 2.0 mph NW3.2 kmh NW 7.0 mph11.3 kmh 30.08 in1018.6 mb 0.00 in0.0 mm 0.00 in0.0 mm 0.00 in0.0 mm
06:02 PM 62.6°F17.0°C 31.6°F-0.2°C 31% 2.0 mph NW3.2 kmh NW 2.0 mph3.2 kmh 30.08 in1018.6 mb 0.00 in0.0 mm 0.00 in0.0 mm 0.00 in0.0 mm
06:04 PM 62.6°F17.0°C 31.6°F-0.2°C 31% 1.0 mph NW1.6 kmh NW 2.0 mph3.2 kmh 30.08 in1018.6 mb 0.00 in0.0 mm 0.00 in0.0 mm 0.00 in0.0 mm
06:06 PM 62.8°F17.1°C 30.9°F-0.6°C 30% 1.0 mph NW1.6 kmh NW 2.0 mph3.2 kmh 30.08 in1018.6 mb 0.00 in0.0 mm 0.00 in0.0 mm 0.00 in0.0 mm
06:08 PM 62.8°F17.1°C 30.9°F-0.6°C 30% 1.0 mph NW1.6 kmh NW 2.0 mph3.2 kmh 30.08 in1018.6 mb 0.00 in0.0 mm 0.00 in0.0 mm 0.00 in0.0 mm
06:10 PM 63.0°F17.2°C 31.1°F-0.5°C 30% 2.0 mph NW3.2 kmh NW 2.0 mph3.2 kmh 30.08 in1018.6 mb 0.00 in0.0 mm 0.00 in0.0 mm 0.00 in0.0 mm
06:12 PM 63.0°F17.2°C 31.1°F-0.5°C 30% 1.0 mph NW1.6 kmh NW 2.0 mph3.2 kmh 30.08 in1018.6 mb 0.00 in0.0 mm 0.00 in0.0 mm 0.00 in0.0 mm
06:14 PM 63.0°F17.2°C 31.1°F-0.5°C 30% 1.0 mph NW1.6 kmh NW 2.0 mph3.2 kmh 30.08 in1018.6 mb 0.00 in0.0 mm 0.00 in0.0 mm 0.00 in0.0 mm
06:16 PM 62.9°F17.2°C 31.8°F-0.1°C 31% 2.0 mph ENE3.2 kmh ENE 3.0 mph4.8 kmh 30.08 in1018.6 mb 0.00 in0.0 mm 0.00 in0.0 mm 0.00 in0.0 mm
06:18 PM 62.5°F16.9°C 30.7°F-0.7°C 30% 1.0 mph ENE1.6 kmh ENE 3.0 mph4.8 kmh 30.08 in1018.6 mb 0.00 in0.0 mm 0.00 in0.0 mm 0.00 in0.0 mm
06:20 PM 62.3°F16.8°C 31.3°F-0.4°C 31% 1.0 mph ENE1.6 kmh ENE 3.0 mph4.8 kmh 30.08 in1018.6 mb 0.00 in0.0 mm 0.00 in0.0 mm 0.00 in0.0 mm
06:22 PM 62.2°F16.8°C 31.2°F-0.4°C 31% 1.0 mph NE1.6 kmh NE 3.0 mph4.8 kmh 30.08 in1018.6 mb 0.00 in0.0 mm 0.00 in0.0 mm 0.00 in0.0 mm
06:24 PM 62.1°F16.7°C 31.1°F-0.5°C 31% 3.0 mph NE4.8 kmh NE 4.0 mph6.4 kmh 30.08 in1018.6 mb 0.00 in0.0 mm 0.00 in0.0 mm 0.00 in0.0 mm
06:26 PM 61.9°F16.6°C 31.0°F-0.6°C 31% 1.0 mph NE1.6 kmh NE 4.0 mph6.4 kmh 30.08 in1018.6 mb 0.00 in0.0 mm 0.00 in0.0 mm 0.00 in0.0 mm
06:28 PM 61.7°F16.5°C 30.8°F-0.7°C 31% 2.0 mph NE3.2 kmh NE 4.0 mph6.4 kmh 30.08 in1018.6 mb 0.00 in0.0 mm 0.00 in0.0 mm 0.00 in0.0 mm
06:30 PM 61.6°F16.4°C 31.5°F-0.3°C 32% Calm Calm 4.0 mph6.4 kmh 30.08 in1018.6 mb 0.00 in0.0 mm 0.00 in0.0 mm 0.00 in0.0 mm
06:32 PM 61.4°F16.3°C 32.1°F0.1°C 33% 2.0 mph NE3.2 kmh NE 3.0 mph4.8 kmh 30.08 in1018.6 mb 0.00 in0.0 mm 0.00 in0.0 mm 0.00 in0.0 mm
06:34 PM 61.2°F16.2°C 31.9°F-0.1°C 33% 1.0 mph NE1.6 kmh NE 3.0 mph4.8 kmh 30.08 in1018.6 mb 0.00 in0.0 mm 0.00 in0.0 mm 0.00 in0.0 mm
06:35 PM 61.1°F16.2°C 31.8°F-0.1°C 33% 3.0 mph NE4.8 kmh NE 4.0 mph6.4 kmh 30.08 in1018.6 mb 0.00 in0.0 mm 0.00 in0.0 mm 0.00 in0.0 mm
06:38 PM 60.9°F16.1°C 31.6°F-0.2°C 33% 1.0 mph NE1.6 kmh NE 4.0 mph6.4 kmh 30.08 in1018.6 mb 0.00 in0.0 mm 0.00 in0.0 mm 0.00 in0.0 mm
06:40 PM 60.8°F16.0°C 32.3°F0.2°C 34% Calm Calm 4.0 mph6.4 kmh 30.08 in1018.6 mb 0.00 in0.0 mm 0.00 in0.0 mm 0.00 in0.0 mm
06:42 PM 60.6°F15.9°C 32.1°F0.1°C 34% 3.0 mph NE4.8 kmh NE 4.0 mph6.4 kmh 30.08 in1018.6 mb 0.00 in0.0 mm 0.00 in0.0 mm 0.00 in0.0 mm
06:44 PM 60.5°F15.8°C 32.0°F0.0°C 34% 2.0 mph NE3.2 kmh NE 4.0 mph6.4 kmh 30.08 in1018.6 mb 0.00 in0.0 mm 0.00 in0.0 mm 0.00 in0.0 mm
06:45 PM 60.4°F15.8°C 31.9°F-0.1°C 34% 1.0 mph NE1.6 kmh NE 4.0 mph6.4 kmh 30.08 in1018.6 mb 0.00 in0.0 mm 0.00 in0.0 mm 0.00 in0.0 mm
06:48 PM 60.3°F15.7°C 32.6°F0.3°C 35% 1.0 mph NE1.6 kmh NE 4.0 mph6.4 kmh 30.08 in1018.6 mb 0.00 in0.0 mm 0.00 in0.0 mm 0.00 in0.0 mm
06:50 PM 60.1°F15.6°C 32.4°F0.2°C 35% 1.0 mph NE1.6 kmh NE 4.0 mph6.4 kmh 30.08 in1018.6 mb 0.00 in0.0 mm 0.00 in0.0 mm 0.00 in0.0 mm
06:52 PM 60.0°F15.6°C 32.3°F0.2°C 35% 4.0 mph NE6.4 kmh NE 4.0 mph6.4 kmh 30.08 in1018.6 mb 0.00 in0.0 mm 0.00 in0.0 mm 0.00 in0.0 mm
06:54 PM 59.8°F15.4°C 32.1°F0.1°C 35% 3.0 mph NE4.8 kmh NE 4.0 mph6.4 kmh 30.08 in1018.6 mb 0.00 in0.0 mm 0.00 in0.0 mm 0.00 in0.0 mm
06:56 PM 59.8°F15.4°C 32.1°F0.1°C 35% 2.0 mph NE3.2 kmh NE 4.0 mph6.4 kmh 30.08 in1018.6 mb 0.00 in0.0 mm 0.00 in0.0 mm 0.00 in0.0 mm
06:58 PM 59.6°F15.3°C 31.9°F-0.1°C 35% 4.0 mph NE6.4 kmh NE 5.0 mph8.0 kmh 30.08 in1018.6 mb 0.00 in0.0 mm 0.00 in0.0 mm 0.00 in0.0 mm
07:00 PM 59.5°F15.3°C 32.6°F0.3°C 36% 1.0 mph NE1.6 kmh NE 5.0 mph8.0 kmh 30.08 in1018.6 mb 0.00 in0.0 mm 0.00 in0.0 mm 0.00 in0.0 mm
07:02 PM 59.4°F15.2°C 32.5°F0.3°C 36% 4.0 mph NE6.4 kmh NE 5.0 mph8.0 kmh 30.08 in1018.6 mb 0.00 in0.0 mm 0.00 in0.0 mm 0.00 in0.0 mm
07:04 PM 59.2°F15.1°C 32.3°F0.2°C 36% 3.0 mph NE4.8 kmh NE 5.0 mph8.0 kmh 30.08 in1018.6 mb 0.00 in0.0 mm 0.00 in0.0 mm 0.00 in0.0 mm
07:06 PM 59.2°F15.1°C 32.3°F0.2°C 36% 4.0 mph NE6.4 kmh NE 5.0 mph8.0 kmh 30.09 in1019.0 mb 0.00 in0.0 mm 0.00 in0.0 mm 0.00 in0.0 mm
07:08 PM 59.1°F15.1°C 32.2°F0.1°C 36% 2.0 mph NE3.2 kmh NE 5.0 mph8.0 kmh 30.08 in1018.6 mb 0.00 in0.0 mm 0.00 in0.0 mm 0.00 in0.0 mm
07:10 PM 59.0°F15.0°C 32.8°F0.4°C 37% 2.0 mph NE3.2 kmh NE 5.0 mph8.0 kmh 30.08 in1018.6 mb 0.00 in0.0 mm 0.00 in0.0 mm 0.00 in0.0 mm
07:12 PM 58.9°F14.9°C 32.7°F0.4°C 37% 2.0 mph NE3.2 kmh NE 5.0 mph8.0 kmh 30.08 in1018.6 mb 0.00 in0.0 mm 0.00 in0.0 mm 0.00 in0.0 mm
07:14 PM 58.8°F14.9°C 32.6°F0.3°C 37% 1.0 mph NE1.6 kmh NE 5.0 mph8.0 kmh 30.09 in1019.0 mb 0.00 in0.0 mm 0.00 in0.0 mm 0.00 in0.0 mm
07:16 PM 58.6°F14.8°C 32.4°F0.2°C 37% 1.0 mph NE1.6 kmh NE 5.0 mph8.0 kmh 30.09 in1019.0 mb 0.00 in0.0 mm 0.00 in0.0 mm 0.00 in0.0 mm
07:18 PM 58.5°F14.7°C 32.3°F0.2°C 37% 1.0 mph NE1.6 kmh NE 5.0 mph8.0 kmh 30.09 in1019.0 mb 0.00 in0.0 mm 0.00 in0.0 mm 0.00 in0.0 mm
07:20 PM 58.3°F14.6°C 32.2°F0.1°C 37% 1.0 mph NE1.6 kmh NE 5.0 mph8.0 kmh 30.09 in1019.0 mb 0.00 in0.0 mm 0.00 in0.0 mm 0.00 in0.0 mm
07:22 PM 58.2°F14.6°C 32.7°F0.4°C 38% 2.0 mph NE3.2 kmh NE 5.0 mph8.0 kmh 30.09 in1019.0 mb 0.00 in0.0 mm 0.00 in0.0 mm 0.00 in0.0 mm
07:24 PM 58.1°F14.5°C 32.7°F0.4°C 38% 2.0 mph NE3.2 kmh NE 5.0 mph8.0 kmh 30.09 in1019.0 mb 0.00 in0.0 mm 0.00 in0.0 mm 0.00 in0.0 mm
07:26 PM 58.0°F14.4°C 32.6°F0.3°C 38% 2.0 mph NE3.2 kmh NE 5.0 mph8.0 kmh 30.09 in1019.0 mb 0.00 in0.0 mm 0.00 in0.0 mm 0.00 in0.0 mm
07:28 PM 57.9°F14.4°C 33.1°F0.6°C 39% 3.0 mph NE4.8 kmh NE 5.0 mph8.0 kmh 30.09 in1019.0 mb 0.00 in0.0 mm 0.00 in0.0 mm 0.00 in0.0 mm
07:30 PM 57.7°F14.3°C 32.3°F0.2°C 38% 2.0 mph NE3.2 kmh NE 5.0 mph8.0 kmh 30.09 in1019.0 mb 0.00 in0.0 mm 0.00 in0.0 mm 0.00 in0.0 mm
07:32 PM 57.6°F14.2°C 32.2°F0.1°C 38% 2.0 mph ENE3.2 kmh ENE 4.0 mph6.4 kmh 30.09 in1019.0 mb 0.00 in0.0 mm 0.00 in0.0 mm 0.00 in0.0 mm
07:34 PM 57.5°F14.2°C 32.8°F0.4°C 39% 3.0 mph ENE4.8 kmh ENE 4.0 mph6.4 kmh 30.09 in1019.0 mb 0.00 in0.0 mm 0.00 in0.0 mm 0.00 in0.0 mm
07:36 PM 57.4°F14.1°C 32.7°F0.4°C 39% 2.0 mph ENE3.2 kmh ENE 4.0 mph6.4 kmh 30.09 in1019.0 mb 0.00 in0.0 mm 0.00 in0.0 mm 0.00 in0.0 mm
07:38 PM 57.4°F14.1°C 32.7°F0.4°C 39% 2.0 mph ENE3.2 kmh ENE 4.0 mph6.4 kmh 30.09 in1019.0 mb 0.00 in0.0 mm 0.00 in0.0 mm 0.00 in0.0 mm
07:40 PM 57.3°F14.1°C 32.6°F0.3°C 39% 2.0 mph NE3.2 kmh NE 4.0 mph6.4 kmh 30.09 in1019.0 mb 0.00 in0.0 mm 0.00 in0.0 mm 0.00 in0.0 mm
07:42 PM 57.1°F13.9°C 33.0°F0.6°C 40% 3.0 mph ENE4.8 kmh ENE 4.0 mph6.4 kmh 30.10 in1019.3 mb 0.00 in0.0 mm 0.00 in0.0 mm 0.00 in0.0 mm
07:44 PM 57.1°F13.9°C 33.0°F0.6°C 40% 2.0 mph ENE3.2 kmh ENE 4.0 mph6.4 kmh 30.10 in1019.3 mb 0.00 in0.0 mm 0.00 in0.0 mm 0.00 in0.0 mm
07:46 PM 56.9°F13.8°C 32.9°F0.5°C 40% 2.0 mph E3.2 kmh E 4.0 mph6.4 kmh 30.10 in1019.3 mb 0.00 in0.0 mm 0.00 in0.0 mm 0.00 in0.0 mm
07:48 PM 56.9°F13.8°C 32.9°F0.5°C 40% 3.0 mph E4.8 kmh E 5.0 mph8.0 kmh 30.10 in1019.3 mb 0.00 in0.0 mm 0.00 in0.0 mm 0.00 in0.0 mm
07:50 PM 56.8°F13.8°C 32.8°F0.4°C 40% 3.0 mph E4.8 kmh E 5.0 mph8.0 kmh 30.10 in1019.3 mb 0.00 in0.0 mm 0.00 in0.0 mm 0.00 in0.0 mm
07:52 PM 56.8°F13.8°C 32.8°F0.4°C 40% 2.0 mph E3.2 kmh E 5.0 mph8.0 kmh 30.10 in1019.3 mb 0.00 in0.0 mm 0.00 in0.0 mm 0.00 in0.0 mm
07:54 PM 56.8°F13.8°C 32.8°F0.4°C 40% 4.0 mph E6.4 kmh E 5.0 mph8.0 kmh 30.10 in1019.3 mb 0.00 in0.0 mm 0.00 in0.0 mm 0.00 in0.0 mm
07:56 PM 56.8°F13.8°C 32.8°F0.4°C 40% 2.0 mph E3.2 kmh E 5.0 mph8.0 kmh 30.10 in1019.3 mb 0.00 in0.0 mm 0.00 in0.0 mm 0.00 in0.0 mm
07:58 PM 56.8°F13.8°C 32.8°F0.4°C 40% 2.0 mph E3.2 kmh E 5.0 mph8.0 kmh 30.10 in1019.3 mb 0.00 in0.0 mm 0.00 in0.0 mm 0.00 in0.0 mm
08:00 PM 56.8°F13.8°C 32.8°F0.4°C 40% 2.0 mph E3.2 kmh E 5.0 mph8.0 kmh 30.10 in1019.3 mb 0.00 in0.0 mm 0.00 in0.0 mm 0.00 in0.0 mm
08:02 PM 56.8°F13.8°C 32.8°F0.4°C 40% 2.0 mph E3.2 kmh E 3.0 mph4.8 kmh 30.11 in1019.6 mb 0.00 in0.0 mm 0.00 in0.0 mm 0.00 in0.0 mm
08:04 PM 56.7°F13.7°C 32.7°F0.4°C 40% 3.0 mph E4.8 kmh E 3.0 mph4.8 kmh 30.11 in1019.6 mb 0.00 in0.0 mm 0.00 in0.0 mm 0.00 in0.0 mm
08:06 PM 56.6°F13.7°C 32.6°F0.3°C 40% 3.0 mph E4.8 kmh E 3.0 mph4.8 kmh 30.11 in1019.6 mb 0.00 in0.0 mm 0.00 in0.0 mm 0.00 in0.0 mm
08:08 PM 56.5°F13.6°C 33.1°F0.6°C 41% 2.0 mph E3.2 kmh E 3.0 mph4.8 kmh 30.11 in1019.6 mb 0.00 in0.0 mm 0.00 in0.0 mm 0.00 in0.0 mm
08:10 PM 56.4°F13.6°C 33.0°F0.6°C 41% 1.0 mph E1.6 kmh E 3.0 mph4.8 kmh 30.11 in1019.6 mb 0.00 in0.0 mm 0.00 in0.0 mm 0.00 in0.0 mm
08:12 PM 56.3°F13.5°C 32.9°F0.5°C 41% 2.0 mph E3.2 kmh E 3.0 mph4.8 kmh 30.11 in1019.6 mb 0.00 in0.0 mm 0.00 in0.0 mm 0.00 in0.0 mm
08:14 PM 56.2°F13.4°C 32.8°F0.4°C 41% 1.0 mph E1.6 kmh E 3.0 mph4.8 kmh 30.11 in1019.6 mb 0.00 in0.0 mm 0.00 in0.0 mm 0.00 in0.0 mm
08:16 PM 56.1°F13.4°C 33.3°F0.7°C 42% 1.0 mph E1.6 kmh E 3.0 mph4.8 kmh 30.12 in1020.0 mb 0.00 in0.0 mm 0.00 in0.0 mm 0.00 in0.0 mm
08:18 PM 56.0°F13.3°C 33.3°F0.7°C 42% 1.0 mph E1.6 kmh E 3.0 mph4.8 kmh 30.12 in1020.0 mb 0.00 in0.0 mm 0.00 in0.0 mm 0.00 in0.0 mm
08:20 PM 55.9°F13.3°C 33.2°F0.7°C 42% 2.0 mph E3.2 kmh E 3.0 mph4.8 kmh 30.12 in1020.0 mb 0.00 in0.0 mm 0.00 in0.0 mm 0.00 in0.0 mm
08:22 PM 55.9°F13.3°C 32.6°F0.3°C 41% 2.0 mph E3.2 kmh E 3.0 mph4.8 kmh 30.12 in1020.0 mb 0.00 in0.0 mm 0.00 in0.0 mm 0.00 in0.0 mm
08:24 PM 55.9°F13.3°C 32.6°F0.3°C 41% 3.0 mph E4.8 kmh E 4.0 mph6.4 kmh 30.12 in1020.0 mb 0.00 in0.0 mm 0.00 in0.0 mm 0.00 in0.0 mm
08:26 PM 55.9°F13.3°C 33.2°F0.7°C 42% 2.0 mph E3.2 kmh E 4.0 mph6.4 kmh 30.12 in1020.0 mb 0.00 in0.0 mm 0.00 in0.0 mm 0.00 in0.0 mm
08:28 PM 55.9°F13.3°C 32.6°F0.3°C 41% 2.0 mph E3.2 kmh E 4.0 mph6.4 kmh 30.12 in1020.0 mb 0.00 in0.0 mm 0.00 in0.0 mm 0.00 in0.0 mm
08:30 PM 55.9°F13.3°C 32.6°F0.3°C 41% 2.0 mph E3.2 kmh E 4.0 mph6.4 kmh 30.12 in1020.0 mb 0.00 in0.0 mm 0.00 in0.0 mm 0.00 in0.0 mm
08:32 PM 55.8°F13.2°C 33.1°F0.6°C 42% 2.0 mph E3.2 kmh E 3.0 mph4.8 kmh 30.12 in1020.0 mb 0.00 in0.0 mm 0.00 in0.0 mm 0.00 in0.0 mm
08:34 PM 55.8°F13.2°C 33.1°F0.6°C 42% 1.0 mph E1.6 kmh E 3.0 mph4.8 kmh 30.12 in1020.0 mb 0.00 in0.0 mm 0.00 in0.0 mm 0.00 in0.0 mm
08:36 PM 55.8°F13.2°C 33.1°F0.6°C 42% 1.0 mph E1.6 kmh E 3.0 mph4.8 kmh 30.13 in1020.3 mb 0.00 in0.0 mm 0.00 in0.0 mm 0.00 in0.0 mm
08:38 PM 55.7°F13.2°C 33.0°F0.6°C 42% Calm Calm 3.0 mph4.8 kmh 30.13 in1020.3 mb 0.00 in0.0 mm 0.00 in0.0 mm 0.00 in0.0 mm
08:40 PM 55.6°F13.1°C 32.9°F0.5°C 42% 1.0 mph E1.6 kmh E 3.0 mph4.8 kmh 30.13 in1020.3 mb 0.00 in0.0 mm 0.00 in0.0 mm 0.00 in0.0 mm
08:42 PM 55.6°F13.1°C 33.5°F0.8°C 43% 1.0 mph E1.6 kmh E 3.0 mph4.8 kmh 30.13 in1020.3 mb 0.00 in0.0 mm 0.00 in0.0 mm 0.00 in0.0 mm
08:44 PM 55.5°F13.1°C 33.4°F0.8°C 43% 1.0 mph E1.6 kmh E 3.0 mph4.8 kmh 30.13 in1020.3 mb 0.00 in0.0 mm 0.00 in0.0 mm 0.00 in0.0 mm
08:46 PM 55.3°F12.9°C 33.2°F0.7°C 43% 2.0 mph E3.2 kmh E 3.0 mph4.8 kmh 30.13 in1020.3 mb 0.00 in0.0 mm 0.00 in0.0 mm 0.00 in0.0 mm
08:48 PM 55.3°F12.9°C 33.2°F0.7°C 43% 1.0 mph E1.6 kmh E 3.0 mph4.8 kmh 30.13 in1020.3 mb 0.00 in0.0 mm 0.00 in0.0 mm 0.00 in0.0 mm
08:50 PM 55.2°F12.9°C 33.1°F0.6°C 43% 1.0 mph E1.6 kmh E 3.0 mph4.8 kmh 30.13 in1020.3 mb 0.00 in0.0 mm 0.00 in0.0 mm 0.00 in0.0 mm
08:52 PM 55.1°F12.8°C 33.0°F0.6°C 43% 1.0 mph E1.6 kmh E 3.0 mph4.8 kmh 30.13 in1020.3 mb 0.00 in0.0 mm 0.00 in0.0 mm 0.00 in0.0 mm
08:54 PM 55.1°F12.8°C 33.0°F0.6°C 43% 1.0 mph E1.6 kmh E 3.0 mph4.8 kmh 30.14 in1020.7 mb 0.00 in0.0 mm 0.00 in0.0 mm 0.00 in0.0 mm
08:56 PM 55.0°F12.8°C 32.9°F0.5°C 43% 2.0 mph E3.2 kmh E 3.0 mph4.8 kmh 30.14 in1020.7 mb 0.00 in0.0 mm 0.00 in0.0 mm 0.00 in0.0 mm
08:58 PM 55.0°F12.8°C 32.9°F0.5°C 43% 2.0 mph E3.2 kmh E 3.0 mph4.8 kmh 30.14 in1020.7 mb 0.00 in0.0 mm 0.00 in0.0 mm 0.00 in0.0 mm
09:00 PM 55.0°F12.8°C 32.9°F0.5°C 43% 2.0 mph E3.2 kmh E 3.0 mph4.8 kmh 30.14 in1020.7 mb 0.00 in0.0 mm 0.00 in0.0 mm 0.00 in0.0 mm
09:02 PM 54.9°F12.7°C 32.8°F0.4°C 43% 1.0 mph E1.6 kmh E 2.0 mph3.2 kmh 30.14 in1020.7 mb 0.00 in0.0 mm 0.00 in0.0 mm 0.00 in0.0 mm
09:04 PM 54.9°F12.7°C 33.4°F0.8°C 44% 1.0 mph E1.6 kmh E 2.0 mph3.2 kmh 30.14 in1020.7 mb 0.00 in0.0 mm 0.00 in0.0 mm 0.00 in0.0 mm
09:06 PM 54.8°F12.7°C 32.8°F0.4°C 43% 2.0 mph E3.2 kmh E 4.0 mph6.4 kmh 30.14 in1020.7 mb 0.00 in0.0 mm 0.00 in0.0 mm 0.00 in0.0 mm
09:08 PM 54.8°F12.7°C 32.8°F0.4°C 43% 1.0 mph E1.6 kmh E 4.0 mph6.4 kmh 30.14 in1020.7 mb 0.00 in0.0 mm 0.00 in0.0 mm 0.00 in0.0 mm
09:10 PM 54.9°F12.7°C 32.8°F0.4°C 43% 2.0 mph E3.2 kmh E 4.0 mph6.4 kmh 30.14 in1020.7 mb 0.00 in0.0 mm 0.00 in0.0 mm 0.00 in0.0 mm
09:12 PM 54.8°F12.7°C 32.8°F0.4°C 43% 2.0 mph E3.2 kmh E 4.0 mph6.4 kmh 30.14 in1020.7 mb 0.00 in0.0 mm 0.00 in0.0 mm 0.00 in0.0 mm
09:14 PM 54.8°F12.7°C 33.3°F0.7°C 44% 2.0 mph E3.2 kmh E 4.0 mph6.4 kmh 30.14 in1020.7 mb 0.00 in0.0 mm 0.00 in0.0 mm 0.00 in0.0 mm
09:16 PM 54.7°F12.6°C 33.2°F0.7°C 44% 2.0 mph E3.2 kmh E 4.0 mph6.4 kmh 30.14 in1020.7 mb 0.00 in0.0 mm 0.00 in0.0 mm 0.00 in0.0 mm
09:18 PM 54.6°F12.6°C 33.1°F0.6°C 44% 2.0 mph E3.2 kmh E 4.0 mph6.4 kmh 30.15 in1021.0 mb 0.00 in0.0 mm 0.00 in0.0 mm 0.00 in0.0 mm
09:20 PM 54.6°F12.6°C 33.1°F0.6°C 44% 2.0 mph E3.2 kmh E 4.0 mph6.4 kmh 30.15 in1021.0 mb 0.00 in0.0 mm 0.00 in0.0 mm 0.00 in0.0 mm
09:22 PM 54.5°F12.5°C 33.6°F0.9°C 45% 2.0 mph E3.2 kmh E 4.0 mph6.4 kmh 30.15 in1021.0 mb 0.00 in0.0 mm 0.00 in0.0 mm 0.00 in0.0 mm
09:24 PM 54.4°F12.4°C 33.5°F0.8°C 45% 3.0 mph E4.8 kmh E 4.0 mph6.4 kmh 30.15 in1021.0 mb 0.00 in0.0 mm 0.00 in0.0 mm 0.00 in0.0 mm
09:26 PM 54.4°F12.4°C 34.1°F1.2°C 46% 4.0 mph E6.4 kmh E 4.0 mph6.4 kmh 30.15 in1021.0 mb 0.00 in0.0 mm 0.00 in0.0 mm 0.00 in0.0 mm
09:28 PM 54.3°F12.4°C 34.0°F1.1°C 46% 2.0 mph ESE3.2 kmh ESE 4.0 mph6.4 kmh 30.15 in1021.0 mb 0.00 in0.0 mm 0.00 in0.0 mm 0.00 in0.0 mm
09:30 PM 54.3°F12.4°C 34.0°F1.1°C 46% 3.0 mph SE4.8 kmh SE 4.0 mph6.4 kmh 30.15 in1021.0 mb 0.00 in0.0 mm 0.00 in0.0 mm 0.00 in0.0 mm
09:32 PM 54.3°F12.4°C 34.5°F1.4°C 47% 3.0 mph SSE4.8 kmh SSE 5.0 mph8.0 kmh 30.15 in1021.0 mb 0.00 in0.0 mm 0.00 in0.0 mm 0.00 in0.0 mm
09:34 PM 54.3°F12.4°C 34.5°F1.4°C 47% 6.0 mph SSE9.7 kmh SSE 13.0 mph20.9 kmh 30.15 in1021.0 mb 0.00 in0.0 mm 0.00 in0.0 mm 0.00 in0.0 mm
09:36 PM 54.3°F12.4°C 35.1°F1.7°C 48% 3.0 mph SSE4.8 kmh SSE 13.0 mph20.9 kmh 30.15 in1021.0 mb 0.00 in0.0 mm 0.00 in0.0 mm 0.00 in0.0 mm
09:38 PM 54.3°F12.4°C 35.1°F1.7°C 48% 2.0 mph S3.2 kmh S 13.0 mph20.9 kmh 30.15 in1021.0 mb 0.00 in0.0 mm 0.00 in0.0 mm 0.00 in0.0 mm
09:40 PM 54.2°F12.3°C 35.5°F1.9°C 49% 8.0 mph S12.9 kmh S 13.0 mph20.9 kmh 30.16 in1021.3 mb 0.00 in0.0 mm 0.00 in0.0 mm 0.00 in0.0 mm
09:42 PM 54.1°F12.3°C 35.9°F2.2°C 50% 4.0 mph SE6.4 kmh SE 13.0 mph20.9 kmh 30.16 in1021.3 mb 0.00 in0.0 mm 0.00 in0.0 mm 0.00 in0.0 mm
09:44 PM 53.9°F12.2°C 36.7°F2.6°C 52% 4.0 mph SE6.4 kmh SE 13.0 mph20.9 kmh 30.16 in1021.3 mb 0.00 in0.0 mm 0.00 in0.0 mm 0.00 in0.0 mm
09:46 PM 53.7°F12.1°C 37.0°F2.8°C 53% 4.0 mph S6.4 kmh S 13.0 mph20.9 kmh 30.16 in1021.3 mb 0.00 in0.0 mm 0.00 in0.0 mm 0.00 in0.0 mm
09:48 PM 53.6°F12.0°C 37.4°F3.0°C 54% 6.0 mph SSE9.7 kmh SSE 13.0 mph20.9 kmh 30.16 in1021.3 mb 0.00 in0.0 mm 0.00 in0.0 mm 0.00 in0.0 mm
09:50 PM 53.5°F11.9°C 37.8°F3.2°C 55% 2.0 mph S3.2 kmh S 13.0 mph20.9 kmh 30.16 in1021.3 mb 0.00 in0.0 mm 0.00 in0.0 mm 0.00 in0.0 mm
09:52 PM 53.5°F11.9°C 38.2°F3.4°C 56% 5.0 mph SSW8.0 kmh SSW 13.0 mph20.9 kmh 30.16 in1021.3 mb 0.00 in0.0 mm 0.00 in0.0 mm 0.00 in0.0 mm
09:54 PM 53.4°F11.9°C 38.1°F3.4°C 56% 3.0 mph S4.8 kmh S 13.0 mph20.9 kmh 30.16 in1021.3 mb 0.00 in0.0 mm 0.00 in0.0 mm 0.00 in0.0 mm
09:56 PM 53.3°F11.8°C 38.0°F3.3°C 56% 4.0 mph S6.4 kmh S 13.0 mph20.9 kmh 30.16 in1021.3 mb 0.00 in0.0 mm 0.00 in0.0 mm 0.00 in0.0 mm
09:58 PM 53.3°F11.8°C 38.0°F3.3°C 56% 9.0 mph S14.5 kmh S 13.0 mph20.9 kmh 30.16 in1021.3 mb 0.00 in0.0 mm 0.00 in0.0 mm 0.00 in0.0 mm
10:00 PM 53.2°F11.8°C 38.4°F3.6°C 57% 5.0 mph SE8.0 kmh SE 13.0 mph20.9 kmh 30.16 in1021.3 mb 0.00 in0.0 mm 0.00 in0.0 mm 0.00 in0.0 mm
10:02 PM 53.1°F11.7°C 38.3°F3.5°C 57% 2.0 mph S3.2 kmh S 7.0 mph11.3 kmh 30.16 in1021.3 mb 0.00 in0.0 mm 0.00 in0.0 mm 0.00 in0.0 mm
10:04 PM 53.0°F11.7°C 38.2°F3.4°C 57% 2.0 mph SE3.2 kmh SE 7.0 mph11.3 kmh 30.16 in1021.3 mb 0.00 in0.0 mm 0.00 in0.0 mm 0.00 in0.0 mm
10:06 PM 53.0°F11.7°C 38.2°F3.4°C 57% 3.0 mph S4.8 kmh S 7.0 mph11.3 kmh 30.16 in1021.3 mb 0.00 in0.0 mm 0.00 in0.0 mm 0.00 in0.0 mm
10:08 PM 52.9°F11.6°C 38.5°F3.6°C 58% 2.0 mph S3.2 kmh S 7.0 mph11.3 kmh 30.16 in1021.3 mb 0.00 in0.0 mm 0.00 in0.0 mm 0.00 in0.0 mm
10:10 PM 52.8°F11.6°C 38.5°F3.6°C 58% 2.0 mph S3.2 kmh S 7.0 mph11.3 kmh 30.16 in1021.3 mb 0.00 in0.0 mm 0.00 in0.0 mm 0.00 in0.0 mm
10:12 PM 52.7°F11.5°C 38.4°F3.6°C 58% 3.0 mph S4.8 kmh S 7.0 mph11.3 kmh 30.16 in1021.3 mb 0.00 in0.0 mm 0.00 in0.0 mm 0.00 in0.0 mm
10:14 PM 52.6°F11.4°C 38.7°F3.7°C 59% 3.0 mph S4.8 kmh S 7.0 mph11.3 kmh 30.16 in1021.3 mb 0.00 in0.0 mm 0.00 in0.0 mm 0.00 in0.0 mm
10:16 PM 52.5°F11.4°C 38.6°F3.7°C 59% 1.0 mph S1.6 kmh S 7.0 mph11.3 kmh 30.16 in1021.3 mb 0.00 in0.0 mm 0.00 in0.0 mm 0.00 in0.0 mm
10:18 PM 52.4°F11.3°C 38.5°F3.6°C 59% 1.0 mph SE1.6 kmh SE 7.0 mph11.3 kmh 30.16 in1021.3 mb 0.00 in0.0 mm 0.00 in0.0 mm 0.00 in0.0 mm
10:19 PM 52.3°F11.3°C 38.4°F3.6°C 59% 1.0 mph SSE1.6 kmh SSE 7.0 mph11.3 kmh 30.16 in1021.3 mb 0.00 in0.0 mm 0.00 in0.0 mm 0.00 in0.0 mm
10:22 PM 52.2°F11.2°C 38.3°F3.5°C 59% 2.0 mph SE3.2 kmh SE 7.0 mph11.3 kmh 30.16 in1021.3 mb 0.00 in0.0 mm 0.00 in0.0 mm 0.00 in0.0 mm
10:24 PM 52.1°F11.2°C 38.7°F3.7°C 60% 2.0 mph SE3.2 kmh SE 7.0 mph11.3 kmh 30.16 in1021.3 mb 0.00 in0.0 mm 0.00 in0.0 mm 0.00 in0.0 mm
10:26 PM 52.0°F11.1°C 38.6°F3.7°C 60% 3.0 mph SE4.8 kmh SE 7.0 mph11.3 kmh 30.16 in1021.3 mb 0.00 in0.0 mm 0.00 in0.0 mm 0.00 in0.0 mm
10:28 PM 51.9°F11.1°C 38.5°F3.6°C 60% 3.0 mph SE4.8 kmh SE 7.0 mph11.3 kmh 30.16 in1021.3 mb 0.00 in0.0 mm 0.00 in0.0 mm 0.00 in0.0 mm
10:30 PM 51.8°F11.0°C 38.4°F3.6°C 60% 2.0 mph ESE3.2 kmh ESE 7.0 mph11.3 kmh 30.16 in1021.3 mb 0.00 in0.0 mm 0.00 in0.0 mm 0.00 in0.0 mm
10:32 PM 51.7°F10.9°C 38.3°F3.5°C 60% 2.0 mph SE3.2 kmh SE 3.0 mph4.8 kmh 30.16 in1021.3 mb 0.00 in0.0 mm 0.00 in0.0 mm 0.00 in0.0 mm
10:34 PM 51.6°F10.9°C 38.6°F3.7°C 61% 2.0 mph SSE3.2 kmh SSE 3.0 mph4.8 kmh 30.16 in1021.3 mb 0.00 in0.0 mm 0.00 in0.0 mm 0.00 in0.0 mm
10:36 PM 51.6°F10.9°C 38.6°F3.7°C 61% 2.0 mph SSE3.2 kmh SSE 5.0 mph8.0 kmh 30.16 in1021.3 mb 0.00 in0.0 mm 0.00 in0.0 mm 0.00 in0.0 mm
10:38 PM 51.5°F10.8°C 38.5°F3.6°C 61% 1.0 mph SE1.6 kmh SE 6.0 mph9.7 kmh 30.16 in1021.3 mb 0.00 in0.0 mm 0.00 in0.0 mm 0.00 in0.0 mm
10:40 PM 51.5°F10.8°C 38.5°F3.6°C 61% 4.0 mph SE6.4 kmh SE 6.0 mph9.7 kmh 30.16 in1021.3 mb 0.00 in0.0 mm 0.00 in0.0 mm 0.00 in0.0 mm
10:42 PM 51.4°F10.8°C 38.4°F3.6°C 61% 4.0 mph SE6.4 kmh SE 6.0 mph9.7 kmh 30.16 in1021.3 mb 0.00 in0.0 mm 0.00 in0.0 mm 0.00 in0.0 mm
10:44 PM 51.3°F10.7°C 38.3°F3.5°C 61% 3.0 mph S4.8 kmh S 6.0 mph9.7 kmh 30.16 in1021.3 mb 0.00 in0.0 mm 0.00 in0.0 mm 0.00 in0.0 mm
10:46 PM 51.3°F10.7°C 38.7°F3.7°C 62% 2.0 mph S3.2 kmh S 6.0 mph9.7 kmh 30.16 in1021.3 mb 0.00 in0.0 mm 0.00 in0.0 mm 0.00 in0.0 mm
10:48 PM 51.2°F10.7°C 38.6°F3.7°C 62% 2.0 mph SSE3.2 kmh SSE 6.0 mph9.7 kmh 30.16 in1021.3 mb 0.00 in0.0 mm 0.00 in0.0 mm 0.00 in0.0 mm
10:50 PM 51.1°F10.6°C 38.6°F3.7°C 62% 3.0 mph SSE4.8 kmh SSE 6.0 mph9.7 kmh 30.16 in1021.3 mb 0.00 in0.0 mm 0.00 in0.0 mm 0.00 in0.0 mm
10:52 PM 51.1°F10.6°C 38.6°F3.7°C 62% 1.0 mph SSE1.6 kmh SSE 6.0 mph9.7 kmh 30.16 in1021.3 mb 0.00 in0.0 mm 0.00 in0.0 mm 0.00 in0.0 mm
10:54 PM 51.1°F10.6°C 38.6°F3.7°C 62% 4.0 mph SSE6.4 kmh SSE 7.0 mph11.3 kmh 30.16 in1021.3 mb 0.00 in0.0 mm 0.00 in0.0 mm 0.00 in0.0 mm
10:56 PM 51.0°F10.6°C 38.5°F3.6°C 62% 2.0 mph S3.2 kmh S 7.0 mph11.3 kmh 30.16 in1021.3 mb 0.00 in0.0 mm 0.00 in0.0 mm 0.00 in0.0 mm
10:58 PM 51.0°F10.6°C 38.5°F3.6°C 62% 3.0 mph SE4.8 kmh SE 7.0 mph11.3 kmh 30.16 in1021.3 mb 0.00 in0.0 mm 0.00 in0.0 mm 0.00 in0.0 mm
11:00 PM 51.0°F10.6°C 38.5°F3.6°C 62% 2.0 mph SSE3.2 kmh SSE 7.0 mph11.3 kmh 30.16 in1021.3 mb 0.00 in0.0 mm 0.00 in0.0 mm 0.00 in0.0 mm
11:02 PM 50.9°F10.5°C 38.4°F3.6°C 62% 4.0 mph S6.4 kmh S 5.0 mph8.0 kmh 30.16 in1021.3 mb 0.00 in0.0 mm 0.00 in0.0 mm 0.00 in0.0 mm
11:04 PM 50.9°F10.5°C 38.4°F3.6°C 62% 3.0 mph SSE4.8 kmh SSE 7.0 mph11.3 kmh 30.16 in1021.3 mb 0.00 in0.0 mm 0.00 in0.0 mm 0.00 in0.0 mm
11:06 PM 50.8°F10.4°C 38.3°F3.5°C 62% 3.0 mph SE4.8 kmh SE 7.0 mph11.3 kmh 30.15 in1021.0 mb 0.00 in0.0 mm 0.00 in0.0 mm 0.00 in0.0 mm
11:08 PM 50.8°F10.4°C 38.7°F3.7°C 63% 3.0 mph S4.8 kmh S 7.0 mph11.3 kmh 30.16 in1021.3 mb 0.00 in0.0 mm 0.00 in0.0 mm 0.00 in0.0 mm
11:10 PM 50.7°F10.4°C 38.6°F3.7°C 63% 4.0 mph S6.4 kmh S 8.0 mph12.9 kmh 30.16 in1021.3 mb 0.00 in0.0 mm 0.00 in0.0 mm 0.00 in0.0 mm
11:12 PM 50.7°F10.4°C 38.6°F3.7°C 63% 6.0 mph SSE9.7 kmh SSE 8.0 mph12.9 kmh 30.15 in1021.0 mb 0.00 in0.0 mm 0.00 in0.0 mm 0.00 in0.0 mm
11:14 PM 50.7°F10.4°C 38.6°F3.7°C 63% 4.0 mph S6.4 kmh S 8.0 mph12.9 kmh 30.15 in1021.0 mb 0.00 in0.0 mm 0.00 in0.0 mm 0.00 in0.0 mm
11:16 PM 50.6°F10.3°C 38.5°F3.6°C 63% 5.0 mph S8.0 kmh S 8.0 mph12.9 kmh 30.15 in1021.0 mb 0.00 in0.0 mm 0.00 in0.0 mm 0.00 in0.0 mm
11:18 PM 50.6°F10.3°C 38.5°F3.6°C 63% 2.0 mph SE3.2 kmh SE 8.0 mph12.9 kmh 30.15 in1021.0 mb 0.00 in0.0 mm 0.00 in0.0 mm 0.00 in0.0 mm
11:20 PM 50.6°F10.3°C 38.5°F3.6°C 63% 5.0 mph SSE8.0 kmh SSE 8.0 mph12.9 kmh 30.15 in1021.0 mb 0.00 in0.0 mm 0.00 in0.0 mm 0.00 in0.0 mm
11:22 PM 50.6°F10.3°C 38.5°F3.6°C 63% 4.0 mph S6.4 kmh S 8.0 mph12.9 kmh 30.15 in1021.0 mb 0.00 in0.0 mm 0.00 in0.0 mm 0.00 in0.0 mm
11:24 PM 50.4°F10.2°C 38.3°F3.5°C 63% 4.0 mph SE6.4 kmh SE 8.0 mph12.9 kmh 30.15 in1021.0 mb 0.00 in0.0 mm 0.00 in0.0 mm 0.00 in0.0 mm
11:26 PM 50.4°F10.2°C 38.3°F3.5°C 63% 4.0 mph S6.4 kmh S 10.0 mph16.1 kmh 30.15 in1021.0 mb 0.00 in0.0 mm 0.00 in0.0 mm 0.00 in0.0 mm
11:28 PM 50.4°F10.2°C 38.3°F3.5°C 63% 3.0 mph SE4.8 kmh SE 10.0 mph16.1 kmh 30.15 in1021.0 mb 0.00 in0.0 mm 0.00 in0.0 mm 0.00 in0.0 mm
11:30 PM 50.3°F10.2°C 38.2°F3.4°C 63% 3.0 mph S4.8 kmh S 10.0 mph16.1 kmh 30.15 in1021.0 mb 0.00 in0.0 mm 0.00 in0.0 mm 0.00 in0.0 mm
11:32 PM 50.3°F10.2°C 38.2°F3.4°C 63% 6.0 mph S9.7 kmh S 9.0 mph14.5 kmh 30.15 in1021.0 mb 0.00 in0.0 mm 0.00 in0.0 mm 0.00 in0.0 mm
11:34 PM 50.3°F10.2°C 38.2°F3.4°C 63% 3.0 mph SE4.8 kmh SE 9.0 mph14.5 kmh 30.15 in1021.0 mb 0.00 in0.0 mm 0.00 in0.0 mm 0.00 in0.0 mm
11:36 PM 50.3°F10.2°C 38.2°F3.4°C 63% 2.0 mph SSE3.2 kmh SSE 9.0 mph14.5 kmh 30.15 in1021.0 mb 0.00 in0.0 mm 0.00 in0.0 mm 0.00 in0.0 mm
11:38 PM 50.2°F10.1°C 38.1°F3.4°C 63% 4.0 mph SSE6.4 kmh SSE 9.0 mph14.5 kmh 30.15 in1021.0 mb 0.00 in0.0 mm 0.00 in0.0 mm 0.00 in0.0 mm
11:40 PM 50.1°F10.1°C 38.0°F3.3°C 63% 4.0 mph SSW6.4 kmh SSW 9.0 mph14.5 kmh 30.15 in1021.0 mb 0.00 in0.0 mm 0.00 in0.0 mm 0.00 in0.0 mm
11:42 PM 50.1°F10.1°C 38.0°F3.3°C 63% 5.0 mph S8.0 kmh S 9.0 mph14.5 kmh 30.15 in1021.0 mb 0.00 in0.0 mm 0.00 in0.0 mm 0.00 in0.0 mm
11:44 PM 50.1°F10.1°C 38.0°F3.3°C 63% 4.0 mph SE6.4 kmh SE 9.0 mph14.5 kmh 30.15 in1021.0 mb 0.00 in0.0 mm 0.00 in0.0 mm 0.00 in0.0 mm
11:46 PM 50.1°F10.1°C 38.0°F3.3°C 63% 6.0 mph S9.7 kmh S 9.0 mph14.5 kmh 30.15 in1021.0 mb 0.00 in0.0 mm 0.00 in0.0 mm 0.00 in0.0 mm
11:48 PM 50.1°F10.1°C 38.0°F3.3°C 63% 6.0 mph SE9.7 kmh SE 9.0 mph14.5 kmh 30.15 in1021.0 mb 0.00 in0.0 mm 0.00 in0.0 mm 0.00 in0.0 mm
11:50 PM 50.1°F10.1°C 38.0°F3.3°C 63% 5.0 mph SSE8.0 kmh SSE 9.0 mph14.5 kmh 30.15 in1021.0 mb 0.00 in0.0 mm 0.00 in0.0 mm 0.00 in0.0 mm
11:52 PM 50.0°F10.0°C 38.3°F3.5°C 64% 5.0 mph S8.0 kmh S 9.0 mph14.5 kmh 30.15 in1021.0 mb 0.00 in0.0 mm 0.00 in0.0 mm 0.00 in0.0 mm
11:54 PM 50.0°F10.0°C 37.9°F3.3°C 63% 7.0 mph S11.3 kmh S 9.0 mph14.5 kmh 30.15 in1021.0 mb 0.00 in0.0 mm 0.00 in0.0 mm 0.00 in0.0 mm
11:56 PM 50.0°F10.0°C 38.3°F3.5°C 64% 5.0 mph S8.0 kmh S 9.0 mph14.5 kmh 30.15 in1021.0 mb 0.00 in0.0 mm 0.00 in0.0 mm 0.00 in0.0 mm
11:58 PM 49.9°F9.9°C 38.2°F3.4°C 64% 6.0 mph S9.7 kmh S 10.0 mph16.1 kmh 30.15 in1021.0 mb 0.00 in0.0 mm 0.00 in0.0 mm 0.00 in0.0 mm